SAS983 EKCH-RJTT
Flight info
| Callsign | SAS983 |
|---|---|
| Flight time | 12h 41m |
| Altitude | 35000 |
| Route | SIMEG Z491 TELMO DCT KOLOB DCT ELPOL DCT LENOV DCT KENIN DCT BADOR DCT REVDA DCT UDROS UM859 KARDE/N0488F370 UN644 ROLIN DCT TAGAR DCT BT DCT BARAD M747 SUBUT T916 LEYLA N161 GASBI/K0896F370 N161 MADEV/K0891F390 N161 SARIN/K0891S1190 A368 FKG W188 LIKMI W270 DKO W69 BIKUT/K0895S1250 W69 HUR B339 LADIX W34 VAPGU W100 ORAVA W201 UNSEK A326 DONVO G597 AGAVO/N0485F410 Y644 EGOBA Y697 LANAT Y71 XAC |
| Aircraft | A359/H-SABDE1E3FGHIJ1J2J3J4J5M1P2RWXYZ/LB2D1 |
Departure
| Time | 2026-05-03 20:27 |
|---|---|
| Airport | Copenhagen Kastrup Airport (EKCH) |
Arrival
| Time | 2026-05-04 09:08 |
|---|---|
| Airport | Tokyo Haneda International Airport (RJTT) |
| Time | Latitude | Longitude | Altitude | Speed | Heading |
|---|---|---|---|---|---|
| 2026-05-03 20:15 | 55.62457 | 12.65202 | 29 ft | 0 kts | 181° |
| 2026-05-03 20:21 | 55.62449 | 12.65202 | 29 ft | 1 kts | 182° |
| 2026-05-03 20:22 | 55.62419 | 12.65202 | 29 ft | 10 kts | 180° |
| 2026-05-03 20:22 | 55.62346 | 12.65204 | 29 ft | 11 kts | 177° |
| 2026-05-03 20:22 | 55.62285 | 12.65145 | 28 ft | 10 kts | 246° |
| 2026-05-03 20:22 | 55.62297 | 12.65026 | 26 ft | 10 kts | 297° |
| 2026-05-03 20:23 | 55.62331 | 12.64913 | 27 ft | 11 kts | 298° |
| 2026-05-03 20:23 | 55.62339 | 12.64789 | 26 ft | 11 kts | 256° |
| 2026-05-03 20:23 | 55.62312 | 12.64663 | 27 ft | 11 kts | 247° |
| 2026-05-03 20:23 | 55.62280 | 12.64529 | 27 ft | 12 kts | 246° |
| 2026-05-03 20:24 | 55.62234 | 12.64393 | 26 ft | 14 kts | 224° |
| 2026-05-03 20:24 | 55.62148 | 12.64301 | 26 ft | 14 kts | 205° |
| 2026-05-03 20:24 | 55.62057 | 12.64230 | 27 ft | 14 kts | 204° |
| 2026-05-03 20:24 | 55.61965 | 12.64153 | 28 ft | 15 kts | 206° |
| 2026-05-03 20:25 | 55.61869 | 12.64080 | 26 ft | 15 kts | 189° |
| 2026-05-03 20:25 | 55.61766 | 12.64077 | 25 ft | 15 kts | 177° |
| 2026-05-03 20:25 | 55.61664 | 12.64083 | 26 ft | 14 kts | 183° |
| 2026-05-03 20:25 | 55.61582 | 12.64008 | 32 ft | 15 kts | 217° |
| 2026-05-03 20:26 | 55.61493 | 12.63878 | 31 ft | 18 kts | 221° |
| 2026-05-03 20:26 | 55.61285 | 12.63553 | 26 ft | 72 kts | 222° |
| 2026-05-03 20:26 | 55.60740 | 12.62706 | 30 ft | 134 kts | 221° |
| 2026-05-03 20:26 | 55.59895 | 12.61407 | 69 ft | 181 kts | 220° |
| 2026-05-03 20:27 | 55.58922 | 12.60039 | 844 ft | 173 kts | 218° |
| 2026-05-03 20:27 | 55.58016 | 12.58690 | 1568 ft | 171 kts | 220° |
| 2026-05-03 20:27 | 55.57080 | 12.57202 | 1745 ft | 190 kts | 220° |
| 2026-05-03 20:27 | 55.55889 | 12.56032 | 1905 ft | 208 kts | 201° |
| 2026-05-03 20:28 | 55.54467 | 12.55108 | 2091 ft | 226 kts | 199° |
| 2026-05-03 20:28 | 55.52923 | 12.54158 | 2426 ft | 240 kts | 199° |
| 2026-05-03 20:28 | 55.51335 | 12.53167 | 3005 ft | 242 kts | 199° |
| 2026-05-03 20:28 | 55.49757 | 12.52169 | 3698 ft | 240 kts | 200° |
| 2026-05-03 20:29 | 55.48184 | 12.51169 | 4339 ft | 239 kts | 200° |
| 2026-05-03 20:29 | 55.46608 | 12.50198 | 4921 ft | 241 kts | 198° |
| 2026-05-03 20:29 | 55.44937 | 12.49794 | 5469 ft | 247 kts | 180° |
| 2026-05-03 20:29 | 55.43262 | 12.50628 | 6036 ft | 258 kts | 156° |
| 2026-05-03 20:30 | 55.41916 | 12.52747 | 6575 ft | 273 kts | 130° |
| 2026-05-03 20:30 | 55.41193 | 12.55933 | 7094 ft | 288 kts | 107° |
| 2026-05-03 20:30 | 55.40738 | 12.59390 | 7648 ft | 291 kts | 110° |
| 2026-05-03 20:30 | 55.40201 | 12.62859 | 8245 ft | 293 kts | 111° |
| 2026-05-03 20:31 | 55.39633 | 12.66331 | 8821 ft | 297 kts | 112° |
| 2026-05-03 20:31 | 55.39051 | 12.69801 | 9392 ft | 301 kts | 112° |
| 2026-05-03 20:31 | 55.38452 | 12.73355 | 9942 ft | 305 kts | 112° |
| 2026-05-03 20:31 | 55.37827 | 12.76999 | 10255 ft | 318 kts | 112° |
| 2026-05-03 20:32 | 55.37166 | 12.80820 | 10507 ft | 334 kts | 112° |
| 2026-05-03 20:32 | 55.36474 | 12.84813 | 10731 ft | 349 kts | 112° |
| 2026-05-03 20:32 | 55.35753 | 12.88980 | 10974 ft | 363 kts | 112° |
| 2026-05-03 20:32 | 55.35003 | 12.93307 | 11215 ft | 377 kts | 112° |
| 2026-05-03 20:33 | 55.34234 | 12.97737 | 11495 ft | 388 kts | 111° |
| 2026-05-03 20:33 | 55.33438 | 13.02322 | 11939 ft | 394 kts | 111° |
| 2026-05-03 20:33 | 55.32639 | 13.06948 | 12462 ft | 397 kts | 111° |
| 2026-05-03 20:33 | 55.31822 | 13.11615 | 13016 ft | 400 kts | 111° |
| 2026-05-03 20:34 | 55.30998 | 13.16306 | 13530 ft | 404 kts | 111° |
| 2026-05-03 20:34 | 55.30166 | 13.21031 | 14034 ft | 407 kts | 111° |
| 2026-05-03 20:34 | 55.29325 | 13.25792 | 14515 ft | 410 kts | 111° |
| 2026-05-03 20:34 | 55.28476 | 13.30590 | 14995 ft | 413 kts | 111° |
| 2026-05-03 20:35 | 55.27620 | 13.35410 | 15451 ft | 415 kts | 111° |
| 2026-05-03 20:35 | 55.26753 | 13.40283 | 15868 ft | 420 kts | 111° |
| 2026-05-03 20:35 | 55.25878 | 13.45187 | 16349 ft | 423 kts | 111° |
| 2026-05-03 20:35 | 55.24920 | 13.50053 | 16825 ft | 423 kts | 117° |
| 2026-05-03 20:36 | 55.23708 | 13.54692 | 17272 ft | 423 kts | 121° |
| 2026-05-03 20:36 | 55.22331 | 13.59255 | 17762 ft | 424 kts | 123° |
| 2026-05-03 20:36 | 55.20871 | 13.63786 | 18223 ft | 427 kts | 124° |
| 2026-05-03 20:36 | 55.19381 | 13.68318 | 18629 ft | 429 kts | 124° |
| 2026-05-03 20:37 | 55.17907 | 13.72812 | 19058 ft | 432 kts | 124° |
| 2026-05-03 20:37 | 55.16417 | 13.77401 | 19489 ft | 434 kts | 123° |
| 2026-05-03 20:37 | 55.14927 | 13.82035 | 19936 ft | 437 kts | 123° |
| 2026-05-03 20:37 | 55.13437 | 13.86697 | 20351 ft | 440 kts | 123° |
| 2026-05-03 20:38 | 55.11938 | 13.91401 | 20769 ft | 444 kts | 123° |
| 2026-05-03 20:38 | 55.10450 | 13.96068 | 21215 ft | 446 kts | 123° |
| 2026-05-03 20:38 | 55.08934 | 14.00819 | 21678 ft | 448 kts | 123° |
| 2026-05-03 20:38 | 55.07412 | 14.05579 | 22101 ft | 451 kts | 123° |
| 2026-05-03 20:39 | 55.05872 | 14.10384 | 22536 ft | 453 kts | 123° |
| 2026-05-03 20:39 | 55.04348 | 14.15224 | 22964 ft | 457 kts | 121° |
| 2026-05-03 20:39 | 55.02921 | 14.20212 | 23390 ft | 461 kts | 119° |
| 2026-05-03 20:39 | 55.01554 | 14.25273 | 23754 ft | 464 kts | 118° |
| 2026-05-03 20:40 | 55.00209 | 14.30326 | 24107 ft | 466 kts | 118° |
| 2026-05-03 20:40 | 54.98831 | 14.35473 | 24417 ft | 469 kts | 118° |
| 2026-05-03 20:40 | 54.97431 | 14.40630 | 24738 ft | 472 kts | 119° |
| 2026-05-03 20:40 | 54.96005 | 14.45815 | 25103 ft | 474 kts | 119° |
| 2026-05-03 20:41 | 54.94566 | 14.50994 | 25460 ft | 476 kts | 119° |
| 2026-05-03 20:41 | 54.93113 | 14.56190 | 25810 ft | 479 kts | 120° |
| 2026-05-03 20:41 | 54.91648 | 14.61407 | 26147 ft | 481 kts | 120° |
| 2026-05-03 20:41 | 54.90175 | 14.66636 | 26495 ft | 483 kts | 120° |
| 2026-05-03 20:42 | 54.88692 | 14.71893 | 26829 ft | 485 kts | 120° |
| 2026-05-03 20:42 | 54.87202 | 14.77167 | 27220 ft | 486 kts | 120° |
| 2026-05-03 20:42 | 54.85722 | 14.82392 | 27498 ft | 489 kts | 119° |
| 2026-05-03 20:42 | 54.84210 | 14.87715 | 27784 ft | 492 kts | 119° |
| 2026-05-03 20:43 | 54.82691 | 14.93056 | 28121 ft | 494 kts | 119° |
| 2026-05-03 20:43 | 54.81152 | 14.98411 | 28433 ft | 496 kts | 120° |
| 2026-05-03 20:43 | 54.79540 | 15.03710 | 28738 ft | 498 kts | 121° |
| 2026-05-03 20:43 | 54.77874 | 15.09003 | 29028 ft | 500 kts | 122° |
| 2026-05-03 20:44 | 54.76193 | 15.14282 | 29312 ft | 502 kts | 122° |
| 2026-05-03 20:44 | 54.74527 | 15.19513 | 29583 ft | 504 kts | 122° |
| 2026-05-03 20:44 | 54.72836 | 15.24844 | 29844 ft | 506 kts | 122° |
| 2026-05-03 20:44 | 54.71295 | 15.29716 | 30048 ft | 508 kts | 121° |
| 2026-05-03 20:45 | 54.69600 | 15.35086 | 30288 ft | 509 kts | 121° |
| 2026-05-03 20:45 | 54.67902 | 15.40471 | 30576 ft | 508 kts | 121° |
| 2026-05-03 20:45 | 54.66206 | 15.45842 | 30902 ft | 507 kts | 121° |
| 2026-05-03 20:45 | 54.64515 | 15.51192 | 31210 ft | 506 kts | 121° |
| 2026-05-03 20:46 | 54.62807 | 15.56417 | 31486 ft | 504 kts | 125° |
| 2026-05-03 20:46 | 54.60778 | 15.61315 | 31755 ft | 500 kts | 133° |
| 2026-05-03 20:46 | 54.58374 | 15.65622 | 32010 ft | 495 kts | 142° |
| 2026-05-03 20:46 | 54.55679 | 15.69283 | 32261 ft | 492 kts | 147° |
| 2026-05-03 20:47 | 54.52887 | 15.72707 | 32530 ft | 490 kts | 149° |
| 2026-05-03 20:47 | 54.50068 | 15.76008 | 32805 ft | 489 kts | 149° |
| 2026-05-03 20:47 | 54.48193 | 15.78165 | 32952 ft | 489 kts | 149° |
| 2026-05-03 20:47 | 54.44413 | 15.82493 | 33300 ft | 487 kts | 149° |
| 2026-05-03 20:48 | 54.41629 | 15.85688 | 33544 ft | 487 kts | 149° |
| 2026-05-03 20:48 | 54.38820 | 15.88924 | 33753 ft | 486 kts | 149° |
| 2026-05-03 20:48 | 54.36013 | 15.92169 | 33974 ft | 486 kts | 149° |
| 2026-05-03 20:48 | 54.34153 | 15.94321 | 34094 ft | 485 kts | 149° |
| 2026-05-03 20:49 | 54.31348 | 15.97569 | 34276 ft | 485 kts | 149° |
| 2026-05-03 20:49 | 54.27632 | 16.01866 | 34494 ft | 485 kts | 149° |
| 2026-05-03 20:49 | 54.25742 | 16.04049 | 34609 ft | 484 kts | 149° |
| 2026-05-03 20:49 | 54.22952 | 16.07266 | 34758 ft | 484 kts | 149° |
| 2026-05-03 20:50 | 54.20186 | 16.10448 | 34862 ft | 485 kts | 149° |
| 2026-05-03 20:50 | 54.14556 | 16.16906 | 34889 ft | 490 kts | 149° |
| 2026-05-03 20:51 | 54.08866 | 16.23413 | 34888 ft | 491 kts | 149° |
| 2026-05-03 20:51 | 54.03215 | 16.29858 | 34889 ft | 491 kts | 149° |
| 2026-05-03 20:52 | 53.97528 | 16.36320 | 34892 ft | 491 kts | 149° |
| 2026-05-03 20:52 | 53.91839 | 16.42761 | 34894 ft | 491 kts | 149° |
| 2026-05-03 20:53 | 53.86178 | 16.49149 | 34894 ft | 491 kts | 149° |
| 2026-05-03 20:53 | 53.80461 | 16.55579 | 34905 ft | 492 kts | 149° |
| 2026-05-03 20:54 | 53.74786 | 16.61941 | 34906 ft | 492 kts | 149° |
| 2026-05-03 20:54 | 53.66214 | 16.71513 | 34904 ft | 492 kts | 149° |
| 2026-05-03 20:55 | 53.60491 | 16.77876 | 34906 ft | 492 kts | 149° |
| 2026-05-03 20:55 | 53.54763 | 16.84222 | 34905 ft | 493 kts | 149° |
| 2026-05-03 20:56 | 53.49026 | 16.90559 | 34908 ft | 493 kts | 149° |
| 2026-05-03 20:56 | 53.43325 | 16.96836 | 34912 ft | 493 kts | 149° |
| 2026-05-03 20:57 | 53.37570 | 17.03152 | 34911 ft | 493 kts | 149° |
| 2026-05-03 20:57 | 53.31860 | 17.09397 | 34915 ft | 493 kts | 149° |
| 2026-05-03 20:58 | 53.26119 | 17.15655 | 34903 ft | 492 kts | 149° |
| 2026-05-03 20:58 | 53.20373 | 17.21899 | 34920 ft | 492 kts | 149° |
| 2026-05-03 20:59 | 53.14625 | 17.28125 | 34922 ft | 492 kts | 149° |
| 2026-05-03 20:59 | 53.08909 | 17.34297 | 34924 ft | 492 kts | 149° |
| 2026-05-03 21:00 | 53.04123 | 17.39448 | 34930 ft | 492 kts | 149° |
| 2026-05-03 21:00 | 52.97409 | 17.46653 | 34930 ft | 492 kts | 149° |
| 2026-05-03 21:01 | 52.91644 | 17.52814 | 34935 ft | 493 kts | 148° |
| 2026-05-03 21:01 | 52.85903 | 17.58934 | 34936 ft | 494 kts | 148° |
| 2026-05-03 21:02 | 52.80119 | 17.65080 | 34944 ft | 494 kts | 149° |
| 2026-05-03 21:02 | 52.74319 | 17.71222 | 34944 ft | 494 kts | 149° |
| 2026-05-03 21:03 | 52.68558 | 17.77303 | 34952 ft | 494 kts | 149° |
| 2026-05-03 21:03 | 52.62766 | 17.83398 | 34949 ft | 495 kts | 148° |
| 2026-05-03 21:04 | 52.56939 | 17.89509 | 34960 ft | 497 kts | 148° |
| 2026-05-03 21:04 | 52.51109 | 17.95605 | 34961 ft | 497 kts | 148° |
| 2026-05-03 21:05 | 52.45271 | 18.01690 | 34966 ft | 497 kts | 148° |
| 2026-05-03 21:05 | 52.39432 | 18.07756 | 34966 ft | 497 kts | 148° |
| 2026-05-03 21:06 | 52.33591 | 18.13804 | 34970 ft | 497 kts | 148° |
| 2026-05-03 21:06 | 52.27731 | 18.19853 | 34972 ft | 497 kts | 148° |
| 2026-05-03 21:07 | 52.21907 | 18.25848 | 34974 ft | 498 kts | 148° |
| 2026-05-03 21:07 | 52.16036 | 18.31871 | 34974 ft | 498 kts | 148° |
| 2026-05-03 21:08 | 52.10167 | 18.37873 | 34979 ft | 497 kts | 148° |
| 2026-05-03 21:08 | 52.04328 | 18.43825 | 34979 ft | 497 kts | 148° |
| 2026-05-03 21:09 | 51.98450 | 18.49798 | 34984 ft | 498 kts | 148° |
| 2026-05-03 21:09 | 51.92570 | 18.55754 | 34987 ft | 498 kts | 148° |
| 2026-05-03 21:10 | 51.86712 | 18.61670 | 34987 ft | 498 kts | 148° |
| 2026-05-03 21:10 | 51.80821 | 18.67601 | 34998 ft | 498 kts | 148° |
| 2026-05-03 21:11 | 51.74924 | 18.73519 | 34995 ft | 498 kts | 148° |
| 2026-05-03 21:11 | 51.69021 | 18.79424 | 35004 ft | 498 kts | 148° |
| 2026-05-03 21:12 | 51.63156 | 18.85274 | 35005 ft | 498 kts | 148° |
| 2026-05-03 21:12 | 51.57239 | 18.91157 | 35015 ft | 498 kts | 148° |
| 2026-05-03 21:13 | 51.51368 | 18.96977 | 35015 ft | 498 kts | 148° |
| 2026-05-03 21:13 | 51.45444 | 19.02831 | 35020 ft | 498 kts | 148° |
| 2026-05-03 21:14 | 51.39526 | 19.08661 | 35020 ft | 499 kts | 148° |
| 2026-05-03 21:14 | 51.33638 | 19.14444 | 35028 ft | 499 kts | 148° |
| 2026-05-03 21:15 | 51.27705 | 19.20252 | 35027 ft | 499 kts | 148° |
| 2026-05-03 21:15 | 51.21771 | 19.26045 | 35031 ft | 500 kts | 148° |
| 2026-05-03 21:16 | 51.15837 | 19.31819 | 35028 ft | 499 kts | 148° |
| 2026-05-03 21:16 | 51.09926 | 19.37554 | 35039 ft | 500 kts | 148° |
| 2026-05-03 21:17 | 51.04940 | 19.42378 | 35039 ft | 500 kts | 148° |
| 2026-05-03 21:17 | 50.98022 | 19.49051 | 35044 ft | 500 kts | 148° |
| 2026-05-03 21:18 | 50.92068 | 19.54775 | 35048 ft | 500 kts | 148° |
| 2026-05-03 21:18 | 50.86107 | 19.60488 | 35050 ft | 500 kts | 148° |
| 2026-05-03 21:19 | 50.80169 | 19.66162 | 35049 ft | 501 kts | 148° |
| 2026-05-03 21:19 | 50.74228 | 19.71822 | 35057 ft | 501 kts | 148° |
| 2026-05-03 21:20 | 50.68247 | 19.77504 | 35053 ft | 501 kts | 148° |
| 2026-05-03 21:20 | 50.62277 | 19.83157 | 35052 ft | 501 kts | 148° |
| 2026-05-03 21:21 | 50.56287 | 19.88813 | 35051 ft | 501 kts | 148° |
| 2026-05-03 21:21 | 50.50346 | 19.94403 | 35056 ft | 501 kts | 148° |
| 2026-05-03 21:22 | 50.44345 | 20.00037 | 35061 ft | 501 kts | 148° |
| 2026-05-03 21:22 | 50.38349 | 20.05649 | 35060 ft | 501 kts | 148° |
| 2026-05-03 21:23 | 50.32350 | 20.11245 | 35065 ft | 501 kts | 148° |
| 2026-05-03 21:23 | 50.26382 | 20.16797 | 35061 ft | 501 kts | 148° |
| 2026-05-03 21:24 | 50.20374 | 20.22368 | 35064 ft | 501 kts | 148° |
| 2026-05-03 21:24 | 50.14392 | 20.27901 | 35063 ft | 502 kts | 148° |
| 2026-05-03 21:25 | 50.08372 | 20.33451 | 35067 ft | 502 kts | 148° |
| 2026-05-03 21:25 | 50.02363 | 20.38975 | 35065 ft | 502 kts | 148° |
| 2026-05-03 21:26 | 49.96375 | 20.44464 | 35087 ft | 502 kts | 148° |
| 2026-05-03 21:26 | 49.90346 | 20.49975 | 35078 ft | 502 kts | 148° |
| 2026-05-03 21:27 | 49.84360 | 20.55429 | 35089 ft | 502 kts | 148° |
| 2026-05-03 21:27 | 49.78326 | 20.60912 | 35088 ft | 502 kts | 148° |
| 2026-05-03 21:28 | 49.72376 | 20.66302 | 35099 ft | 502 kts | 148° |
| 2026-05-03 21:28 | 49.66347 | 20.71746 | 35103 ft | 502 kts | 148° |
| 2026-05-03 21:29 | 49.60308 | 20.77186 | 35110 ft | 502 kts | 148° |
| 2026-05-03 21:29 | 49.54305 | 20.82580 | 35110 ft | 502 kts | 148° |
| 2026-05-03 21:30 | 49.48265 | 20.87989 | 35118 ft | 502 kts | 148° |
| 2026-05-03 21:30 | 49.42222 | 20.93384 | 35118 ft | 502 kts | 148° |
| 2026-05-03 21:31 | 49.36168 | 20.98774 | 35128 ft | 502 kts | 148° |
| 2026-05-03 21:31 | 49.30179 | 21.04172 | 35128 ft | 502 kts | 146° |
| 2026-05-03 21:32 | 49.24272 | 21.09881 | 35121 ft | 502 kts | 145° |
| 2026-05-03 21:32 | 49.18426 | 21.15576 | 35129 ft | 502 kts | 145° |
| 2026-05-03 21:33 | 49.12504 | 21.21272 | 35123 ft | 502 kts | 146° |
| 2026-05-03 21:33 | 49.06579 | 21.26914 | 35136 ft | 502 kts | 145° |
| 2026-05-03 21:34 | 49.00678 | 21.32510 | 35129 ft | 501 kts | 145° |
| 2026-05-03 21:34 | 48.94735 | 21.38131 | 35128 ft | 502 kts | 145° |
| 2026-05-03 21:35 | 48.88825 | 21.43707 | 35126 ft | 502 kts | 145° |
| 2026-05-03 21:35 | 48.82889 | 21.49294 | 35133 ft | 501 kts | 146° |
| 2026-05-03 21:36 | 48.76950 | 21.54867 | 35128 ft | 501 kts | 146° |
| 2026-05-03 21:36 | 48.71050 | 21.60387 | 35131 ft | 501 kts | 146° |
| 2026-05-03 21:37 | 48.65244 | 21.65805 | 35127 ft | 501 kts | 146° |
| 2026-05-03 21:37 | 48.59638 | 21.71022 | 35127 ft | 501 kts | 146° |
| 2026-05-03 21:38 | 48.54838 | 21.75478 | 35126 ft | 501 kts | 146° |
| 2026-05-03 21:38 | 48.49002 | 21.80882 | 35126 ft | 501 kts | 146° |
| 2026-05-03 21:39 | 48.43190 | 21.86249 | 35129 ft | 501 kts | 146° |
| 2026-05-03 21:39 | 48.37130 | 21.91350 | 35129 ft | 504 kts | 155° |
| 2026-05-03 21:40 | 48.30391 | 21.94133 | 35129 ft | 507 kts | 168° |
| 2026-05-03 21:40 | 48.23443 | 21.95831 | 35132 ft | 508 kts | 170° |
| 2026-05-03 21:41 | 48.16449 | 21.97361 | 35135 ft | 508 kts | 170° |
| 2026-05-03 21:41 | 48.09427 | 21.98926 | 35139 ft | 508 kts | 169° |
| 2026-05-03 21:42 | 48.02466 | 22.00516 | 35131 ft | 508 kts | 169° |
| 2026-05-03 21:42 | 47.95682 | 22.02076 | 35140 ft | 509 kts | 169° |
| 2026-05-03 21:43 | 47.88681 | 22.03682 | 35142 ft | 508 kts | 169° |
| 2026-05-03 21:43 | 47.81759 | 22.05265 | 35152 ft | 509 kts | 169° |
| 2026-05-03 21:44 | 47.74772 | 22.06856 | 35152 ft | 509 kts | 169° |
| 2026-05-03 21:44 | 47.67763 | 22.08448 | 35149 ft | 509 kts | 169° |
| 2026-05-03 21:45 | 47.60991 | 22.11062 | 35160 ft | 503 kts | 154° |
| 2026-05-03 21:45 | 47.55139 | 22.16544 | 35160 ft | 495 kts | 134° |
| 2026-05-03 21:46 | 47.50726 | 22.24274 | 35180 ft | 490 kts | 123° |
| 2026-05-03 21:46 | 47.46804 | 22.32449 | 35155 ft | 489 kts | 121° |
| 2026-05-03 21:47 | 47.42900 | 22.40691 | 35179 ft | 489 kts | 122° |
| 2026-05-03 21:47 | 47.38953 | 22.48893 | 35162 ft | 489 kts | 122° |
| 2026-05-03 21:48 | 47.35000 | 22.57014 | 35176 ft | 489 kts | 122° |
| 2026-05-03 21:48 | 47.31223 | 22.64735 | 35175 ft | 489 kts | 122° |
| 2026-05-03 21:49 | 47.27228 | 22.72880 | 35175 ft | 489 kts | 122° |
| 2026-05-03 21:49 | 47.23267 | 22.80934 | 35181 ft | 489 kts | 122° |
| 2026-05-03 21:50 | 47.19264 | 22.89053 | 35200 ft | 489 kts | 122° |
| 2026-05-03 21:50 | 47.15265 | 22.97137 | 35192 ft | 486 kts | 122° |
| 2026-05-03 21:51 | 47.11313 | 23.05107 | 35189 ft | 486 kts | 122° |
| 2026-05-03 21:51 | 47.07324 | 23.13129 | 35186 ft | 486 kts | 122° |
| 2026-05-03 21:52 | 47.03321 | 23.21153 | 35202 ft | 486 kts | 122° |
| 2026-05-03 21:52 | 46.99386 | 23.29019 | 35190 ft | 485 kts | 122° |
| 2026-05-03 21:53 | 46.95394 | 23.36976 | 35189 ft | 485 kts | 122° |
| 2026-05-03 21:53 | 46.91394 | 23.44927 | 35169 ft | 485 kts | 122° |
| 2026-05-03 21:54 | 46.87385 | 23.52872 | 35169 ft | 485 kts | 121° |
| 2026-05-03 21:54 | 46.83542 | 23.60464 | 35158 ft | 483 kts | 121° |
| 2026-05-03 21:55 | 46.79598 | 23.68236 | 35159 ft | 483 kts | 121° |
| 2026-05-03 21:55 | 46.75600 | 23.76095 | 35157 ft | 484 kts | 122° |
| 2026-05-03 21:56 | 46.71643 | 23.83850 | 35155 ft | 484 kts | 122° |
| 2026-05-03 21:56 | 46.67626 | 23.91701 | 35172 ft | 483 kts | 122° |
| 2026-05-03 21:57 | 46.63621 | 23.99506 | 35170 ft | 483 kts | 122° |
| 2026-05-03 21:57 | 46.59607 | 24.07304 | 35175 ft | 483 kts | 122° |
| 2026-05-03 21:58 | 46.55591 | 24.15088 | 35182 ft | 483 kts | 122° |
| 2026-05-03 21:58 | 46.51548 | 24.22900 | 35181 ft | 483 kts | 122° |
| 2026-05-03 21:59 | 46.47504 | 24.30692 | 35178 ft | 483 kts | 122° |
| 2026-05-03 21:59 | 46.43479 | 24.38428 | 35160 ft | 483 kts | 122° |
| 2026-05-03 22:00 | 46.39425 | 24.46197 | 35182 ft | 483 kts | 122° |
| 2026-05-03 22:00 | 46.35353 | 24.53979 | 35180 ft | 484 kts | 122° |
| 2026-05-03 22:01 | 46.31303 | 24.61697 | 35178 ft | 484 kts | 122° |
| 2026-05-03 22:01 | 46.27224 | 24.69449 | 35177 ft | 484 kts | 122° |
| 2026-05-03 22:02 | 46.23185 | 24.77101 | 35179 ft | 483 kts | 122° |
| 2026-05-03 22:02 | 46.19095 | 24.84833 | 35180 ft | 483 kts | 122° |
| 2026-05-03 22:03 | 46.15042 | 24.92474 | 35177 ft | 483 kts | 122° |
| 2026-05-03 22:03 | 46.11063 | 24.99952 | 35182 ft | 483 kts | 122° |
| 2026-05-03 22:04 | 46.06963 | 25.07638 | 35180 ft | 483 kts | 122° |
| 2026-05-03 22:04 | 46.02886 | 25.15262 | 35181 ft | 483 kts | 122° |
| 2026-05-03 22:05 | 45.98790 | 25.22897 | 35182 ft | 483 kts | 122° |
| 2026-05-03 22:05 | 45.94674 | 25.30551 | 35202 ft | 483 kts | 122° |
| 2026-05-03 22:06 | 45.90559 | 25.38178 | 35171 ft | 481 kts | 122° |
| 2026-05-03 22:06 | 45.86475 | 25.45731 | 35164 ft | 481 kts | 122° |
| 2026-05-03 22:07 | 45.82355 | 25.53331 | 35160 ft | 481 kts | 122° |
| 2026-05-03 22:07 | 45.78258 | 25.60870 | 35174 ft | 481 kts | 123° |
| 2026-05-03 22:08 | 45.74154 | 25.68395 | 35160 ft | 479 kts | 123° |
| 2026-05-03 22:08 | 45.70034 | 25.75933 | 35186 ft | 479 kts | 123° |
| 2026-05-03 22:09 | 45.65947 | 25.83391 | 35187 ft | 479 kts | 123° |
| 2026-05-03 22:10 | 45.59760 | 25.94644 | 35194 ft | 481 kts | 124° |
| 2026-05-03 22:10 | 45.55628 | 26.02140 | 35194 ft | 481 kts | 124° |
| 2026-05-03 22:11 | 45.51504 | 26.09596 | 35192 ft | 481 kts | 124° |
| 2026-05-03 22:11 | 45.47347 | 26.17090 | 35202 ft | 481 kts | 126° |
| 2026-05-03 22:12 | 45.43187 | 26.24571 | 35186 ft | 481 kts | 126° |
| 2026-05-03 22:12 | 45.39025 | 26.32035 | 35179 ft | 481 kts | 126° |
| 2026-05-03 22:13 | 45.34846 | 26.39508 | 35179 ft | 481 kts | 126° |
| 2026-05-03 22:13 | 45.30695 | 26.46914 | 35172 ft | 481 kts | 126° |
| 2026-05-03 22:14 | 45.26507 | 26.54366 | 35160 ft | 481 kts | 126° |
| 2026-05-03 22:14 | 45.22321 | 26.61796 | 35162 ft | 482 kts | 126° |
| 2026-05-03 22:15 | 45.18124 | 26.69226 | 35151 ft | 482 kts | 126° |
| 2026-05-03 22:15 | 45.13958 | 26.76581 | 35140 ft | 480 kts | 127° |
| 2026-05-03 22:16 | 45.09776 | 26.83944 | 35142 ft | 480 kts | 127° |
| 2026-05-03 22:16 | 45.05576 | 26.91321 | 35131 ft | 479 kts | 127° |
| 2026-05-03 22:17 | 45.01384 | 26.98664 | 35134 ft | 479 kts | 127° |
| 2026-05-03 22:17 | 44.97241 | 27.05902 | 35127 ft | 475 kts | 127° |
| 2026-05-03 22:18 | 44.93083 | 27.13148 | 35121 ft | 475 kts | 127° |
| 2026-05-03 22:18 | 44.88915 | 27.20394 | 35128 ft | 475 kts | 127° |
| 2026-05-03 22:19 | 44.84747 | 27.27621 | 35117 ft | 475 kts | 127° |
| 2026-05-03 22:19 | 44.80593 | 27.34807 | 35124 ft | 476 kts | 127° |
| 2026-05-03 22:20 | 44.76395 | 27.42048 | 35116 ft | 476 kts | 127° |
| 2026-05-03 22:20 | 44.72196 | 27.49275 | 35115 ft | 476 kts | 127° |
| 2026-05-03 22:21 | 44.68018 | 27.56447 | 35122 ft | 477 kts | 128° |
| 2026-05-03 22:21 | 44.63797 | 27.63674 | 35115 ft | 477 kts | 128° |
| 2026-05-03 22:22 | 44.59577 | 27.70881 | 35117 ft | 477 kts | 128° |
| 2026-05-03 22:22 | 44.55378 | 27.78033 | 35114 ft | 477 kts | 128° |
| 2026-05-03 22:23 | 44.51144 | 27.85229 | 35107 ft | 478 kts | 128° |
| 2026-05-03 22:23 | 44.46903 | 27.92417 | 35114 ft | 478 kts | 128° |
| 2026-05-03 22:24 | 44.42676 | 27.99564 | 35107 ft | 480 kts | 128° |
| 2026-05-03 22:24 | 44.38402 | 28.06773 | 35106 ft | 480 kts | 128° |
| 2026-05-03 22:25 | 44.34159 | 28.13910 | 35104 ft | 480 kts | 128° |
| 2026-05-03 22:25 | 44.29885 | 28.21082 | 35103 ft | 479 kts | 129° |
| 2026-05-03 22:26 | 44.26323 | 28.27045 | 35092 ft | 480 kts | 129° |
| 2026-05-03 22:26 | 44.22046 | 28.34190 | 35099 ft | 477 kts | 129° |
| 2026-05-03 22:27 | 44.17826 | 28.41221 | 35088 ft | 474 kts | 129° |
| 2026-05-03 22:27 | 44.13587 | 28.48267 | 35089 ft | 474 kts | 129° |
| 2026-05-03 22:28 | 44.09375 | 28.55252 | 35091 ft | 474 kts | 130° |
| 2026-05-03 22:28 | 44.05142 | 28.62254 | 35086 ft | 472 kts | 130° |
| 2026-05-03 22:29 | 44.00907 | 28.69241 | 35089 ft | 472 kts | 130° |
| 2026-05-03 22:29 | 43.96674 | 28.76209 | 35088 ft | 472 kts | 130° |
| 2026-05-03 22:30 | 43.92457 | 28.83135 | 35089 ft | 472 kts | 130° |
| 2026-05-03 22:30 | 43.88214 | 28.90085 | 35091 ft | 472 kts | 130° |
| 2026-05-03 22:31 | 43.83960 | 28.97035 | 35083 ft | 472 kts | 130° |
| 2026-05-03 22:31 | 43.79704 | 29.03974 | 35083 ft | 472 kts | 130° |
| 2026-05-03 22:32 | 43.75471 | 29.10858 | 35075 ft | 471 kts | 131° |
| 2026-05-03 22:32 | 43.70888 | 29.17372 | 35088 ft | 471 kts | 137° |
| 2026-05-03 22:33 | 43.66090 | 29.23455 | 35069 ft | 470 kts | 138° |
| 2026-05-03 22:33 | 43.61224 | 29.29499 | 35057 ft | 469 kts | 139° |
| 2026-05-03 22:34 | 43.56399 | 29.35482 | 35056 ft | 468 kts | 139° |
| 2026-05-03 22:34 | 43.51555 | 29.41491 | 35056 ft | 467 kts | 139° |
| 2026-05-03 22:35 | 43.46731 | 29.47499 | 35050 ft | 467 kts | 137° |
| 2026-05-03 22:35 | 43.42210 | 29.53945 | 35044 ft | 466 kts | 134° |
| 2026-05-03 22:36 | 43.37836 | 29.60400 | 35049 ft | 463 kts | 134° |
| 2026-05-03 22:36 | 43.33452 | 29.66894 | 35040 ft | 463 kts | 134° |
| 2026-05-03 22:37 | 43.29054 | 29.73382 | 35026 ft | 464 kts | 134° |
| 2026-05-03 22:37 | 43.24672 | 29.79822 | 35024 ft | 464 kts | 134° |
| 2026-05-03 22:38 | 43.20261 | 29.86286 | 35022 ft | 464 kts | 134° |
| 2026-05-03 22:38 | 43.15849 | 29.92736 | 35023 ft | 464 kts | 134° |
| 2026-05-03 22:39 | 43.11450 | 29.99154 | 35021 ft | 461 kts | 135° |
| 2026-05-03 22:39 | 43.07091 | 30.05501 | 35020 ft | 454 kts | 135° |
| 2026-05-03 22:40 | 43.02767 | 30.11780 | 35021 ft | 453 kts | 135° |
| 2026-05-03 22:40 | 42.98445 | 30.18040 | 35002 ft | 456 kts | 135° |
| 2026-05-03 22:41 | 42.94093 | 30.24333 | 35001 ft | 452 kts | 135° |
| 2026-05-03 22:41 | 42.89784 | 30.30553 | 34993 ft | 448 kts | 135° |
| 2026-05-03 22:42 | 42.85517 | 30.36695 | 34985 ft | 448 kts | 135° |
| 2026-05-03 22:42 | 42.81219 | 30.42870 | 34975 ft | 448 kts | 135° |
| 2026-05-03 22:43 | 42.76936 | 30.49010 | 34976 ft | 444 kts | 135° |
| 2026-05-03 22:43 | 42.73045 | 30.55461 | 34968 ft | 445 kts | 124° |
| 2026-05-03 22:44 | 42.70494 | 30.63179 | 34963 ft | 453 kts | 109° |
| 2026-05-03 22:44 | 42.69346 | 30.71666 | 34956 ft | 457 kts | 103° |
| 2026-05-03 22:45 | 42.68508 | 30.80209 | 34959 ft | 454 kts | 102° |
| 2026-05-03 22:45 | 42.67687 | 30.88674 | 34958 ft | 454 kts | 102° |
| 2026-05-03 22:46 | 42.66821 | 30.97177 | 34953 ft | 453 kts | 102° |
| 2026-05-03 22:46 | 42.65929 | 31.05672 | 34953 ft | 453 kts | 103° |
| 2026-05-03 22:47 | 42.65037 | 31.14096 | 34944 ft | 451 kts | 103° |
| 2026-05-03 22:47 | 42.64138 | 31.22525 | 34937 ft | 450 kts | 103° |
| 2026-05-03 22:48 | 42.63234 | 31.30943 | 34937 ft | 450 kts | 103° |
| 2026-05-03 22:48 | 42.62323 | 31.39371 | 34928 ft | 450 kts | 103° |
| 2026-05-03 22:49 | 42.61409 | 31.47773 | 34930 ft | 448 kts | 103° |
| 2026-05-03 22:49 | 42.60502 | 31.56066 | 34921 ft | 445 kts | 103° |
| 2026-05-03 22:50 | 42.59586 | 31.64375 | 34923 ft | 443 kts | 103° |
| 2026-05-03 22:50 | 42.58665 | 31.72650 | 34916 ft | 443 kts | 103° |
| 2026-05-03 22:51 | 42.57737 | 31.80935 | 34908 ft | 443 kts | 103° |
| 2026-05-03 22:51 | 42.56812 | 31.89155 | 34911 ft | 442 kts | 103° |
| 2026-05-03 22:52 | 42.55875 | 31.97423 | 34909 ft | 442 kts | 103° |
| 2026-05-03 22:52 | 42.54952 | 32.05616 | 34908 ft | 442 kts | 103° |
| 2026-05-03 22:53 | 42.54023 | 32.13880 | 34902 ft | 442 kts | 103° |
| 2026-05-03 22:53 | 42.53084 | 32.22081 | 34903 ft | 441 kts | 103° |
| 2026-05-03 22:54 | 42.52136 | 32.30301 | 34895 ft | 441 kts | 103° |
| 2026-05-03 22:54 | 42.51183 | 32.38512 | 34889 ft | 441 kts | 103° |
| 2026-05-03 22:55 | 42.50223 | 32.46732 | 34890 ft | 440 kts | 103° |
| 2026-05-03 22:55 | 42.49265 | 32.54879 | 34885 ft | 440 kts | 103° |
| 2026-05-03 22:56 | 42.48297 | 32.63081 | 34895 ft | 439 kts | 103° |
| 2026-05-03 22:56 | 42.47329 | 32.71208 | 34873 ft | 439 kts | 104° |
| 2026-05-03 22:57 | 42.46348 | 32.79399 | 34883 ft | 439 kts | 104° |
| 2026-05-03 22:57 | 42.45362 | 32.87586 | 34886 ft | 439 kts | 104° |
| 2026-05-03 22:58 | 42.44375 | 32.95728 | 34863 ft | 439 kts | 104° |
| 2026-05-03 22:58 | 42.43379 | 33.03898 | 34865 ft | 439 kts | 104° |
| 2026-05-03 22:59 | 42.42376 | 33.12070 | 34863 ft | 439 kts | 104° |
| 2026-05-03 22:59 | 42.41379 | 33.20176 | 34874 ft | 439 kts | 104° |
| 2026-05-03 23:00 | 42.40362 | 33.28330 | 34869 ft | 439 kts | 104° |
| 2026-05-03 23:00 | 42.39338 | 33.36483 | 34861 ft | 439 kts | 104° |
| 2026-05-03 23:01 | 42.38312 | 33.44636 | 34859 ft | 439 kts | 104° |
| 2026-05-03 23:01 | 42.37282 | 33.52779 | 34857 ft | 439 kts | 104° |
| 2026-05-03 23:02 | 42.36250 | 33.60890 | 34841 ft | 439 kts | 104° |
| 2026-05-03 23:02 | 42.35210 | 33.69010 | 34857 ft | 441 kts | 104° |
| 2026-05-03 23:03 | 42.34156 | 33.77193 | 34851 ft | 441 kts | 104° |
| 2026-05-03 23:03 | 42.33098 | 33.85361 | 34855 ft | 441 kts | 104° |
| 2026-05-03 23:04 | 42.32036 | 33.93530 | 34856 ft | 441 kts | 104° |
| 2026-05-03 23:04 | 42.30970 | 34.01694 | 34855 ft | 441 kts | 104° |
| 2026-05-03 23:05 | 42.29905 | 34.09807 | 34853 ft | 441 kts | 104° |
| 2026-05-03 23:05 | 42.28826 | 34.17980 | 34851 ft | 441 kts | 104° |
| 2026-05-03 23:06 | 42.27749 | 34.26094 | 34843 ft | 441 kts | 104° |
| 2026-05-03 23:06 | 42.26660 | 34.34247 | 34846 ft | 441 kts | 104° |
| 2026-05-03 23:07 | 42.25567 | 34.42407 | 34845 ft | 442 kts | 104° |
| 2026-05-03 23:07 | 42.24464 | 34.50569 | 34846 ft | 441 kts | 104° |
| 2026-05-03 23:08 | 42.23350 | 34.58738 | 34847 ft | 441 kts | 104° |
| 2026-05-03 23:08 | 42.22238 | 34.66853 | 34829 ft | 443 kts | 104° |
| 2026-05-03 23:09 | 42.21111 | 34.75044 | 34837 ft | 444 kts | 104° |
| 2026-05-03 23:09 | 42.19987 | 34.83198 | 34835 ft | 444 kts | 104° |
| 2026-05-03 23:10 | 42.18846 | 34.91388 | 34833 ft | 444 kts | 104° |
| 2026-05-03 23:10 | 42.17694 | 34.99579 | 34832 ft | 444 kts | 104° |
| 2026-05-03 23:11 | 42.16537 | 35.07774 | 34835 ft | 445 kts | 104° |
| 2026-05-03 23:11 | 42.15382 | 35.15924 | 34815 ft | 445 kts | 104° |
| 2026-05-03 23:12 | 42.14214 | 35.24125 | 34815 ft | 445 kts | 104° |
| 2026-05-03 23:12 | 42.13039 | 35.32331 | 34814 ft | 445 kts | 105° |
| 2026-05-03 23:13 | 42.11867 | 35.40477 | 34821 ft | 446 kts | 105° |
| 2026-05-03 23:13 | 42.10680 | 35.48696 | 34820 ft | 446 kts | 105° |
| 2026-05-03 23:14 | 42.09487 | 35.56922 | 34813 ft | 446 kts | 105° |
| 2026-05-03 23:14 | 42.08296 | 35.65088 | 34800 ft | 446 kts | 104° |
| 2026-05-03 23:15 | 42.07089 | 35.73322 | 34802 ft | 449 kts | 105° |
| 2026-05-03 23:15 | 42.05877 | 35.81545 | 34811 ft | 451 kts | 105° |
| 2026-05-03 23:16 | 42.04650 | 35.89829 | 34808 ft | 451 kts | 105° |
| 2026-05-03 23:16 | 42.03416 | 35.98122 | 34808 ft | 451 kts | 105° |
| 2026-05-03 23:17 | 42.02387 | 36.05002 | 34802 ft | 451 kts | 105° |
| 2026-05-03 23:17 | 42.01142 | 36.13285 | 34804 ft | 452 kts | 105° |
| 2026-05-03 23:18 | 41.99888 | 36.21578 | 34802 ft | 452 kts | 105° |
| 2026-05-03 23:18 | 41.98638 | 36.29815 | 34801 ft | 452 kts | 105° |
| 2026-05-03 23:19 | 41.97371 | 36.38115 | 34806 ft | 452 kts | 105° |
| 2026-05-03 23:19 | 41.96100 | 36.46397 | 34804 ft | 452 kts | 105° |
| 2026-05-03 23:20 | 41.94824 | 36.54672 | 34803 ft | 452 kts | 105° |
| 2026-05-03 23:20 | 41.93549 | 36.62901 | 34784 ft | 452 kts | 105° |
| 2026-05-03 23:21 | 41.92254 | 36.71207 | 34802 ft | 455 kts | 105° |
| 2026-05-03 23:21 | 41.90958 | 36.79483 | 34799 ft | 456 kts | 105° |
| 2026-05-03 23:22 | 41.88987 | 36.91997 | 34799 ft | 456 kts | 105° |
| 2026-05-03 23:22 | 41.87675 | 37.00294 | 34873 ft | 456 kts | 105° |
| 2026-05-03 23:23 | 41.87210 | 37.04508 | 35104 ft | 458 kts | 99° |
| 2026-05-03 23:23 | 41.87028 | 37.08785 | 35271 ft | 460 kts | 97° |
| 2026-05-03 23:23 | 41.86919 | 37.13087 | 35381 ft | 461 kts | 96° |
| 2026-05-03 23:23 | 41.86848 | 37.17399 | 35477 ft | 463 kts | 96° |
| 2026-05-03 23:24 | 41.86793 | 37.21731 | 35594 ft | 464 kts | 95° |
| 2026-05-03 23:24 | 41.86741 | 37.26074 | 35707 ft | 465 kts | 95° |
| 2026-05-03 23:24 | 41.86687 | 37.30365 | 35819 ft | 466 kts | 96° |
| 2026-05-03 23:24 | 41.86626 | 37.34723 | 35926 ft | 467 kts | 96° |
| 2026-05-03 23:25 | 41.86488 | 37.43482 | 35991 ft | 472 kts | 96° |
| 2026-05-03 23:25 | 41.86336 | 37.52257 | 36204 ft | 473 kts | 96° |
| 2026-05-03 23:26 | 41.86178 | 37.61099 | 36371 ft | 475 kts | 96° |
| 2026-05-03 23:26 | 41.86012 | 37.69982 | 36572 ft | 477 kts | 96° |
| 2026-05-03 23:27 | 41.85839 | 37.78881 | 36758 ft | 478 kts | 96° |
| 2026-05-03 23:27 | 41.85656 | 37.87850 | 36794 ft | 483 kts | 96° |
| 2026-05-03 23:28 | 41.85467 | 37.96836 | 36772 ft | 485 kts | 96° |
| 2026-05-03 23:28 | 41.85270 | 38.05908 | 36792 ft | 487 kts | 96° |
| 2026-05-03 23:29 | 41.85066 | 38.15012 | 36788 ft | 487 kts | 97° |
| 2026-05-03 23:29 | 41.84855 | 38.24036 | 36785 ft | 487 kts | 97° |
| 2026-05-03 23:30 | 41.84636 | 38.33126 | 36785 ft | 487 kts | 97° |
| 2026-05-03 23:30 | 41.84409 | 38.42208 | 36782 ft | 487 kts | 97° |
| 2026-05-03 23:31 | 41.84175 | 38.51303 | 36785 ft | 487 kts | 97° |
| 2026-05-03 23:31 | 41.83936 | 38.60328 | 36785 ft | 487 kts | 97° |
| 2026-05-03 23:32 | 41.83688 | 38.69410 | 36782 ft | 487 kts | 97° |
| 2026-05-03 23:32 | 41.83432 | 38.78493 | 36782 ft | 487 kts | 97° |
| 2026-05-03 23:33 | 41.83171 | 38.87516 | 36786 ft | 487 kts | 97° |
| 2026-05-03 23:33 | 41.82901 | 38.96611 | 36784 ft | 487 kts | 97° |
| 2026-05-03 23:34 | 41.82624 | 39.05716 | 36783 ft | 487 kts | 97° |
| 2026-05-03 23:34 | 41.82342 | 39.14756 | 36769 ft | 487 kts | 97° |
| 2026-05-03 23:35 | 41.82049 | 39.23862 | 36766 ft | 489 kts | 97° |
| 2026-05-03 23:35 | 41.81749 | 39.32986 | 36781 ft | 490 kts | 97° |
| 2026-05-03 23:36 | 41.81442 | 39.42121 | 36778 ft | 490 kts | 97° |
| 2026-05-03 23:36 | 41.81130 | 39.51204 | 36780 ft | 490 kts | 97° |
| 2026-05-03 23:37 | 41.80811 | 39.60336 | 36778 ft | 490 kts | 98° |
| 2026-05-03 23:37 | 41.80483 | 39.69459 | 36771 ft | 490 kts | 98° |
| 2026-05-03 23:38 | 41.80147 | 39.78590 | 36776 ft | 491 kts | 98° |
| 2026-05-03 23:38 | 41.79803 | 39.87719 | 36769 ft | 494 kts | 98° |
| 2026-05-03 23:39 | 41.79452 | 39.96926 | 36767 ft | 494 kts | 98° |
| 2026-05-03 23:39 | 41.79093 | 40.06131 | 36750 ft | 493 kts | 98° |
| 2026-05-03 23:40 | 41.78729 | 40.15333 | 36763 ft | 495 kts | 98° |
| 2026-05-03 23:40 | 41.78364 | 40.24500 | 36765 ft | 495 kts | 98° |
| 2026-05-03 23:41 | 41.77988 | 40.33728 | 36753 ft | 495 kts | 98° |
| 2026-05-03 23:41 | 41.77602 | 40.42985 | 36766 ft | 498 kts | 98° |
| 2026-05-03 23:42 | 41.77212 | 40.52213 | 36766 ft | 499 kts | 98° |
| 2026-05-03 23:42 | 41.76835 | 40.61505 | 36756 ft | 500 kts | 96° |
| 2026-05-03 23:43 | 41.77652 | 40.70854 | 36761 ft | 510 kts | 81° |
| 2026-05-03 23:43 | 41.79447 | 40.80020 | 36757 ft | 512 kts | 78° |
| 2026-05-03 23:44 | 41.81418 | 40.89245 | 36755 ft | 514 kts | 78° |
| 2026-05-03 23:44 | 41.83379 | 40.98465 | 36754 ft | 514 kts | 78° |
| 2026-05-03 23:45 | 41.85299 | 41.07661 | 36743 ft | 514 kts | 78° |
| 2026-05-03 23:45 | 41.87209 | 41.16907 | 36745 ft | 514 kts | 78° |
| 2026-05-03 23:46 | 41.89101 | 41.26124 | 36749 ft | 514 kts | 78° |
| 2026-05-03 23:46 | 41.90999 | 41.35400 | 36751 ft | 515 kts | 78° |
| 2026-05-03 23:47 | 41.92890 | 41.44680 | 36747 ft | 514 kts | 78° |
| 2026-05-03 23:47 | 41.94761 | 41.53902 | 36737 ft | 515 kts | 78° |
| 2026-05-03 23:48 | 41.96643 | 41.63224 | 36755 ft | 517 kts | 78° |
| 2026-05-03 23:48 | 41.98521 | 41.72569 | 36753 ft | 518 kts | 78° |
| 2026-05-03 23:49 | 42.00393 | 41.81924 | 36747 ft | 517 kts | 78° |
| 2026-05-03 23:49 | 42.02255 | 41.91272 | 36733 ft | 517 kts | 78° |
| 2026-05-03 23:50 | 42.03797 | 41.99048 | 36737 ft | 517 kts | 78° |
| 2026-05-03 23:50 | 42.05942 | 42.09919 | 36712 ft | 517 kts | 78° |
| 2026-05-03 23:51 | 42.07779 | 42.19276 | 36731 ft | 516 kts | 78° |
| 2026-05-03 23:51 | 42.09599 | 42.28592 | 36750 ft | 516 kts | 78° |
| 2026-05-03 23:52 | 42.11423 | 42.37970 | 36770 ft | 517 kts | 78° |
| 2026-05-03 23:52 | 42.13239 | 42.47349 | 36773 ft | 517 kts | 78° |
| 2026-05-03 23:53 | 42.15048 | 42.56736 | 36770 ft | 516 kts | 78° |
| 2026-05-03 23:53 | 42.16835 | 42.66058 | 36758 ft | 516 kts | 78° |
| 2026-05-03 23:54 | 42.18623 | 42.75428 | 36737 ft | 515 kts | 78° |
| 2026-05-03 23:54 | 42.20394 | 42.84752 | 36698 ft | 515 kts | 78° |
| 2026-05-03 23:55 | 42.22169 | 42.94145 | 36719 ft | 515 kts | 78° |
| 2026-05-03 23:55 | 42.23319 | 43.03644 | 36738 ft | 509 kts | 92° |
| 2026-05-03 23:56 | 42.22342 | 43.12886 | 36765 ft | 497 kts | 112° |
| 2026-05-03 23:56 | 42.19787 | 43.21528 | 36779 ft | 496 kts | 118° |
| 2026-05-03 23:57 | 42.16956 | 43.30028 | 36774 ft | 496 kts | 118° |
| 2026-05-03 23:57 | 42.14109 | 43.38518 | 36797 ft | 497 kts | 118° |
| 2026-05-03 23:58 | 42.11289 | 43.47018 | 36815 ft | 497 kts | 118° |
| 2026-05-03 23:58 | 42.08496 | 43.55469 | 36835 ft | 497 kts | 118° |
| 2026-05-03 23:59 | 42.05466 | 43.63804 | 36833 ft | 491 kts | 127° |
| 2026-05-03 23:59 | 42.01776 | 43.71531 | 36835 ft | 490 kts | 128° |
| 2026-05-04 00:00 | 41.97992 | 43.79086 | 36862 ft | 489 kts | 129° |
| 2026-05-04 00:00 | 41.94171 | 43.86651 | 36885 ft | 490 kts | 129° |
| 2026-05-04 00:01 | 41.90343 | 43.94238 | 36880 ft | 490 kts | 129° |
| 2026-05-04 00:01 | 41.86540 | 44.01788 | 36893 ft | 489 kts | 129° |
| 2026-05-04 00:02 | 41.82722 | 44.09350 | 36913 ft | 488 kts | 129° |
| 2026-05-04 00:02 | 41.78921 | 44.16857 | 36934 ft | 489 kts | 129° |
| 2026-05-04 00:03 | 41.75076 | 44.24429 | 36956 ft | 491 kts | 129° |
| 2026-05-04 00:03 | 41.71228 | 44.31993 | 36954 ft | 491 kts | 129° |
| 2026-05-04 00:04 | 41.67400 | 44.39499 | 36971 ft | 491 kts | 129° |
| 2026-05-04 00:04 | 41.63536 | 44.47056 | 36969 ft | 492 kts | 130° |
| 2026-05-04 00:05 | 41.60308 | 44.53353 | 36983 ft | 492 kts | 130° |
| 2026-05-04 00:05 | 41.56426 | 44.60908 | 36983 ft | 492 kts | 130° |
| 2026-05-04 00:06 | 41.52562 | 44.68412 | 36992 ft | 492 kts | 130° |
| 2026-05-04 00:06 | 41.48675 | 44.75941 | 36990 ft | 492 kts | 130° |
| 2026-05-04 00:07 | 41.44785 | 44.83457 | 36986 ft | 492 kts | 130° |
| 2026-05-04 00:07 | 41.40886 | 44.90973 | 36966 ft | 492 kts | 130° |
| 2026-05-04 00:08 | 41.37006 | 44.98432 | 36979 ft | 493 kts | 130° |
| 2026-05-04 00:08 | 41.33277 | 45.06130 | 36980 ft | 499 kts | 122° |
| 2026-05-04 00:09 | 41.30666 | 45.14766 | 36959 ft | 505 kts | 114° |
| 2026-05-04 00:09 | 41.28392 | 45.23572 | 36974 ft | 508 kts | 113° |
| 2026-05-04 00:10 | 41.26137 | 45.32489 | 36974 ft | 508 kts | 114° |
| 2026-05-04 00:10 | 41.23853 | 45.41402 | 36971 ft | 508 kts | 114° |
| 2026-05-04 00:11 | 41.21549 | 45.50288 | 36969 ft | 509 kts | 114° |
| 2026-05-04 00:11 | 41.19238 | 45.59136 | 36971 ft | 510 kts | 114° |
| 2026-05-04 00:12 | 41.16905 | 45.68057 | 36969 ft | 511 kts | 114° |
| 2026-05-04 00:12 | 41.14564 | 45.76960 | 36941 ft | 511 kts | 114° |
| 2026-05-04 00:13 | 41.12201 | 45.85888 | 36971 ft | 512 kts | 114° |
| 2026-05-04 00:13 | 41.09846 | 45.94765 | 36977 ft | 513 kts | 114° |
| 2026-05-04 00:14 | 41.07474 | 46.03680 | 36979 ft | 513 kts | 114° |
| 2026-05-04 00:14 | 41.05097 | 46.12584 | 36973 ft | 513 kts | 114° |
| 2026-05-04 00:15 | 41.02701 | 46.21525 | 36977 ft | 514 kts | 114° |
| 2026-05-04 00:15 | 41.00307 | 46.30441 | 36987 ft | 514 kts | 114° |
| 2026-05-04 00:16 | 40.98012 | 46.39118 | 36969 ft | 514 kts | 114° |
| 2026-05-04 00:16 | 40.95645 | 46.48081 | 36983 ft | 516 kts | 114° |
| 2026-05-04 00:17 | 40.93263 | 46.57054 | 36978 ft | 517 kts | 114° |
| 2026-05-04 00:17 | 40.90884 | 46.65967 | 36977 ft | 517 kts | 114° |
| 2026-05-04 00:18 | 40.88522 | 46.74953 | 36974 ft | 520 kts | 110° |
| 2026-05-04 00:18 | 40.87544 | 46.84481 | 36980 ft | 531 kts | 90° |
| 2026-05-04 00:19 | 40.88743 | 46.94126 | 36984 ft | 536 kts | 79° |
| 2026-05-04 00:19 | 40.90527 | 47.03724 | 36979 ft | 537 kts | 77° |
| 2026-05-04 00:20 | 40.92350 | 47.13246 | 36990 ft | 536 kts | 77° |
| 2026-05-04 00:20 | 40.94136 | 47.22831 | 36991 ft | 535 kts | 78° |
| 2026-05-04 00:21 | 40.95874 | 47.32357 | 36990 ft | 535 kts | 78° |
| 2026-05-04 00:21 | 40.97611 | 47.41963 | 36992 ft | 535 kts | 78° |
| 2026-05-04 00:22 | 40.99333 | 47.51532 | 36988 ft | 533 kts | 78° |
| 2026-05-04 00:22 | 41.01036 | 47.61037 | 36982 ft | 533 kts | 78° |
| 2026-05-04 00:23 | 41.02744 | 47.70614 | 36984 ft | 533 kts | 78° |
| 2026-05-04 00:23 | 41.04437 | 47.80160 | 36972 ft | 531 kts | 78° |
| 2026-05-04 00:24 | 41.06111 | 47.89630 | 36942 ft | 531 kts | 78° |
| 2026-05-04 00:24 | 41.08194 | 47.98995 | 36932 ft | 531 kts | 66° |
| 2026-05-04 00:25 | 41.11987 | 48.07379 | 36938 ft | 531 kts | 54° |
| 2026-05-04 00:25 | 41.16315 | 48.15345 | 36914 ft | 531 kts | 52° |
| 2026-05-04 00:26 | 41.20694 | 48.23207 | 36934 ft | 532 kts | 52° |
| 2026-05-04 00:26 | 41.25083 | 48.31167 | 36952 ft | 535 kts | 53° |
| 2026-05-04 00:27 | 41.29489 | 48.39217 | 36967 ft | 540 kts | 53° |
| 2026-05-04 00:27 | 41.33869 | 48.47274 | 36987 ft | 539 kts | 53° |
| 2026-05-04 00:28 | 41.38274 | 48.55397 | 37007 ft | 540 kts | 53° |
| 2026-05-04 00:28 | 41.42716 | 48.63518 | 37018 ft | 541 kts | 52° |
| 2026-05-04 00:29 | 41.47216 | 48.71542 | 36995 ft | 540 kts | 52° |
| 2026-05-04 00:29 | 41.51472 | 48.79167 | 37019 ft | 537 kts | 53° |
| 2026-05-04 00:30 | 41.55093 | 48.86266 | 37026 ft | 537 kts | 56° |
| 2026-05-04 00:30 | 41.58282 | 48.92714 | 37023 ft | 536 kts | 53° |
| 2026-05-04 00:31 | 41.61399 | 48.99110 | 37043 ft | 534 kts | 53° |
| 2026-05-04 00:31 | 41.65460 | 49.06279 | 37026 ft | 535 kts | 47° |
| 2026-05-04 00:32 | 41.69847 | 49.12724 | 37023 ft | 537 kts | 46° |
| 2026-05-04 00:32 | 41.74452 | 49.19695 | 37022 ft | 535 kts | 48° |
| 2026-05-04 00:33 | 41.81457 | 49.31083 | 37023 ft | 533 kts | 49° |
| 2026-05-04 00:34 | 41.85914 | 49.38977 | 37020 ft | 534 kts | 53° |
| 2026-05-04 00:34 | 41.90228 | 49.47107 | 37020 ft | 535 kts | 53° |
| 2026-05-04 00:35 | 41.94571 | 49.55233 | 37021 ft | 535 kts | 52° |
| 2026-05-04 00:35 | 41.98945 | 49.63329 | 37027 ft | 534 kts | 52° |
| 2026-05-04 00:36 | 42.03290 | 49.71353 | 37017 ft | 533 kts | 52° |
| 2026-05-04 00:36 | 42.07663 | 49.79448 | 37018 ft | 533 kts | 52° |
| 2026-05-04 00:37 | 42.12027 | 49.87552 | 37021 ft | 533 kts | 52° |
| 2026-05-04 00:37 | 42.16354 | 49.95612 | 37018 ft | 534 kts | 52° |
| 2026-05-04 00:38 | 42.20697 | 50.03724 | 37010 ft | 534 kts | 52° |
| 2026-05-04 00:38 | 42.25044 | 50.11865 | 37014 ft | 534 kts | 53° |
| 2026-05-04 00:39 | 42.29385 | 50.20017 | 37009 ft | 533 kts | 53° |
| 2026-05-04 00:39 | 42.33714 | 50.28171 | 37010 ft | 533 kts | 53° |
| 2026-05-04 00:40 | 42.38013 | 50.36287 | 37010 ft | 533 kts | 53° |
| 2026-05-04 00:40 | 42.42326 | 50.44453 | 37009 ft | 533 kts | 53° |
| 2026-05-04 00:41 | 42.46707 | 50.52573 | 37006 ft | 532 kts | 51° |
| 2026-05-04 00:41 | 42.51246 | 50.60416 | 37007 ft | 532 kts | 50° |
| 2026-05-04 00:42 | 42.55825 | 50.68300 | 37004 ft | 531 kts | 50° |
| 2026-05-04 00:42 | 42.60369 | 50.76232 | 37001 ft | 531 kts | 51° |
| 2026-05-04 00:43 | 42.64853 | 50.84130 | 37001 ft | 530 kts | 51° |
| 2026-05-04 00:43 | 42.69357 | 50.92093 | 37001 ft | 530 kts | 51° |
| 2026-05-04 00:44 | 42.73847 | 51.00051 | 36999 ft | 530 kts | 51° |
| 2026-05-04 00:44 | 42.78307 | 51.07972 | 36999 ft | 529 kts | 51° |
| 2026-05-04 00:45 | 42.82798 | 51.15970 | 36990 ft | 529 kts | 51° |
| 2026-05-04 00:45 | 42.87245 | 51.23908 | 37001 ft | 530 kts | 51° |
| 2026-05-04 00:46 | 42.91700 | 51.31881 | 36986 ft | 528 kts | 52° |
| 2026-05-04 00:46 | 42.96141 | 51.39858 | 36985 ft | 527 kts | 52° |
| 2026-05-04 00:47 | 43.00580 | 51.47850 | 36985 ft | 527 kts | 52° |
| 2026-05-04 00:47 | 43.05015 | 51.55856 | 36976 ft | 527 kts | 52° |
| 2026-05-04 00:48 | 43.09412 | 51.63813 | 36974 ft | 526 kts | 52° |
| 2026-05-04 00:48 | 43.13835 | 51.71839 | 36977 ft | 526 kts | 52° |
| 2026-05-04 00:49 | 43.18212 | 51.79803 | 36973 ft | 526 kts | 52° |
| 2026-05-04 00:49 | 43.22612 | 51.87832 | 36975 ft | 525 kts | 52° |
| 2026-05-04 00:50 | 43.27002 | 51.95863 | 36971 ft | 525 kts | 52° |
| 2026-05-04 00:50 | 43.31386 | 52.03905 | 36972 ft | 525 kts | 52° |
| 2026-05-04 00:51 | 43.35748 | 52.11930 | 36973 ft | 524 kts | 52° |
| 2026-05-04 00:51 | 43.40084 | 52.19927 | 36970 ft | 524 kts | 52° |
| 2026-05-04 00:52 | 43.44435 | 52.27975 | 36970 ft | 523 kts | 53° |
| 2026-05-04 00:52 | 43.48774 | 52.36023 | 36972 ft | 523 kts | 53° |
| 2026-05-04 00:53 | 43.53078 | 52.44028 | 36970 ft | 522 kts | 53° |
| 2026-05-04 00:53 | 43.57402 | 52.52090 | 36974 ft | 522 kts | 53° |
| 2026-05-04 00:54 | 43.60994 | 52.58806 | 36974 ft | 522 kts | 53° |
| 2026-05-04 00:54 | 43.65283 | 52.66844 | 36976 ft | 522 kts | 53° |
| 2026-05-04 00:55 | 43.69582 | 52.74938 | 36980 ft | 522 kts | 53° |
| 2026-05-04 00:55 | 43.73862 | 52.83042 | 36979 ft | 521 kts | 53° |
| 2026-05-04 00:56 | 43.78107 | 52.91100 | 36979 ft | 520 kts | 53° |
| 2026-05-04 00:56 | 43.82368 | 52.99207 | 36980 ft | 520 kts | 53° |
| 2026-05-04 00:57 | 43.86623 | 53.07325 | 36979 ft | 520 kts | 53° |
| 2026-05-04 00:57 | 43.90877 | 53.15462 | 36980 ft | 520 kts | 53° |
| 2026-05-04 00:58 | 43.95092 | 53.23551 | 36980 ft | 520 kts | 53° |
| 2026-05-04 00:58 | 43.99331 | 53.31711 | 36979 ft | 520 kts | 53° |
| 2026-05-04 00:59 | 44.03561 | 53.39877 | 36982 ft | 519 kts | 54° |
| 2026-05-04 00:59 | 44.07747 | 53.47978 | 36982 ft | 519 kts | 54° |
| 2026-05-04 01:00 | 44.11959 | 53.56152 | 36984 ft | 519 kts | 54° |
| 2026-05-04 01:00 | 44.16152 | 53.64313 | 36990 ft | 518 kts | 54° |
| 2026-05-04 01:01 | 44.20341 | 53.72488 | 36990 ft | 518 kts | 54° |
| 2026-05-04 01:01 | 44.24493 | 53.80616 | 36990 ft | 517 kts | 54° |
| 2026-05-04 01:02 | 44.28667 | 53.88808 | 36991 ft | 517 kts | 54° |
| 2026-05-04 01:02 | 44.32834 | 53.97010 | 36990 ft | 517 kts | 54° |
| 2026-05-04 01:03 | 44.36976 | 54.05187 | 36991 ft | 517 kts | 54° |
| 2026-05-04 01:03 | 44.41135 | 54.13418 | 36992 ft | 517 kts | 54° |
| 2026-05-04 01:04 | 44.45258 | 54.21604 | 36989 ft | 517 kts | 54° |
| 2026-05-04 01:04 | 44.49406 | 54.29859 | 36990 ft | 517 kts | 54° |
| 2026-05-04 01:05 | 44.53536 | 54.38103 | 36988 ft | 517 kts | 54° |
| 2026-05-04 01:05 | 44.57660 | 54.46363 | 36988 ft | 517 kts | 54° |
| 2026-05-04 01:06 | 44.61759 | 54.54594 | 36991 ft | 517 kts | 55° |
| 2026-05-04 01:06 | 44.65999 | 54.62770 | 36992 ft | 517 kts | 48° |
| 2026-05-04 01:07 | 44.71104 | 54.69877 | 36986 ft | 516 kts | 42° |
| 2026-05-04 01:07 | 44.76382 | 54.76673 | 36990 ft | 516 kts | 41° |
| 2026-05-04 01:08 | 44.81722 | 54.83471 | 36988 ft | 516 kts | 41° |
| 2026-05-04 01:08 | 44.87043 | 54.90285 | 36988 ft | 516 kts | 41° |
| 2026-05-04 01:09 | 44.92353 | 54.97130 | 36987 ft | 516 kts | 41° |
| 2026-05-04 01:09 | 44.97621 | 55.03947 | 36987 ft | 517 kts | 41° |
| 2026-05-04 01:10 | 45.02919 | 55.10821 | 36987 ft | 515 kts | 41° |
| 2026-05-04 01:10 | 45.07783 | 55.18188 | 36988 ft | 516 kts | 55° |
| 2026-05-04 01:11 | 45.11077 | 55.27196 | 36988 ft | 515 kts | 68° |
| 2026-05-04 01:11 | 45.13718 | 55.36580 | 36988 ft | 516 kts | 69° |
| 2026-05-04 01:12 | 45.16271 | 55.46094 | 36987 ft | 516 kts | 69° |
| 2026-05-04 01:12 | 45.18833 | 55.55608 | 36987 ft | 516 kts | 69° |
| 2026-05-04 01:13 | 45.21395 | 55.65057 | 36987 ft | 516 kts | 69° |
| 2026-05-04 01:13 | 45.23968 | 55.74552 | 36990 ft | 515 kts | 69° |
| 2026-05-04 01:14 | 45.26536 | 55.84062 | 36994 ft | 515 kts | 69° |
| 2026-05-04 01:14 | 45.29095 | 55.93581 | 36988 ft | 515 kts | 69° |
| 2026-05-04 01:15 | 45.31625 | 56.03034 | 36994 ft | 514 kts | 69° |
| 2026-05-04 01:15 | 45.34159 | 56.12541 | 37002 ft | 513 kts | 69° |
| 2026-05-04 01:16 | 45.36683 | 56.22047 | 37006 ft | 513 kts | 69° |
| 2026-05-04 01:16 | 45.39203 | 56.31574 | 37004 ft | 513 kts | 69° |
| 2026-05-04 01:17 | 45.41694 | 56.41031 | 37009 ft | 514 kts | 69° |
| 2026-05-04 01:17 | 45.44200 | 56.50584 | 37010 ft | 514 kts | 69° |
| 2026-05-04 01:18 | 45.46681 | 56.60078 | 37007 ft | 514 kts | 69° |
| 2026-05-04 01:18 | 45.49167 | 56.69633 | 37015 ft | 514 kts | 69° |
| 2026-05-04 01:19 | 45.51646 | 56.79198 | 37019 ft | 514 kts | 69° |
| 2026-05-04 01:19 | 45.54119 | 56.88779 | 37018 ft | 514 kts | 70° |
| 2026-05-04 01:20 | 45.56564 | 56.98293 | 37019 ft | 514 kts | 70° |
| 2026-05-04 01:20 | 45.59020 | 57.07886 | 37023 ft | 514 kts | 70° |
| 2026-05-04 01:21 | 45.61469 | 57.17497 | 37026 ft | 513 kts | 70° |
| 2026-05-04 01:21 | 45.63904 | 57.27087 | 37026 ft | 513 kts | 70° |
| 2026-05-04 01:22 | 45.66317 | 57.36632 | 37032 ft | 513 kts | 70° |
| 2026-05-04 01:22 | 45.68741 | 57.46260 | 37034 ft | 512 kts | 70° |
| 2026-05-04 01:23 | 45.71134 | 57.55806 | 37033 ft | 512 kts | 70° |
| 2026-05-04 01:23 | 45.73531 | 57.65405 | 37034 ft | 512 kts | 70° |
| 2026-05-04 01:24 | 45.75927 | 57.75027 | 37042 ft | 512 kts | 70° |
| 2026-05-04 01:24 | 45.78309 | 57.84659 | 37040 ft | 513 kts | 70° |
| 2026-05-04 01:25 | 45.80670 | 57.94248 | 37042 ft | 513 kts | 70° |
| 2026-05-04 01:25 | 45.83035 | 58.03888 | 37050 ft | 513 kts | 70° |
| 2026-05-04 01:26 | 45.85396 | 58.13552 | 37049 ft | 513 kts | 70° |
| 2026-05-04 01:26 | 45.87752 | 58.23232 | 37053 ft | 513 kts | 70° |
| 2026-05-04 01:27 | 45.90085 | 58.32862 | 37058 ft | 513 kts | 70° |
| 2026-05-04 01:27 | 45.92420 | 58.42543 | 37059 ft | 513 kts | 70° |
| 2026-05-04 01:28 | 45.94751 | 58.52250 | 37061 ft | 512 kts | 70° |
| 2026-05-04 01:28 | 45.97057 | 58.61892 | 37064 ft | 512 kts | 71° |
| 2026-05-04 01:29 | 45.99368 | 58.71598 | 37063 ft | 512 kts | 71° |
| 2026-05-04 01:29 | 46.01653 | 58.81237 | 37073 ft | 512 kts | 71° |
| 2026-05-04 01:30 | 46.03944 | 58.90945 | 37070 ft | 511 kts | 71° |
| 2026-05-04 01:30 | 46.06223 | 59.00646 | 37070 ft | 511 kts | 71° |
| 2026-05-04 01:31 | 46.08481 | 59.10296 | 37070 ft | 511 kts | 71° |
| 2026-05-04 01:31 | 46.10746 | 59.20025 | 37075 ft | 510 kts | 71° |
| 2026-05-04 01:32 | 46.12998 | 59.29738 | 37073 ft | 510 kts | 71° |
| 2026-05-04 01:32 | 46.15226 | 59.39391 | 37076 ft | 510 kts | 71° |
| 2026-05-04 01:33 | 46.17460 | 59.49109 | 37082 ft | 510 kts | 71° |
| 2026-05-04 01:33 | 46.19689 | 59.58857 | 37083 ft | 510 kts | 71° |
| 2026-05-04 01:34 | 46.21893 | 59.68531 | 37087 ft | 510 kts | 71° |
| 2026-05-04 01:34 | 46.24102 | 59.78287 | 37086 ft | 510 kts | 71° |
| 2026-05-04 01:35 | 46.26275 | 59.87990 | 37085 ft | 510 kts | 71° |
| 2026-05-04 01:35 | 46.28450 | 59.97753 | 37093 ft | 510 kts | 71° |
| 2026-05-04 01:36 | 46.30623 | 60.07541 | 37095 ft | 510 kts | 71° |
| 2026-05-04 01:36 | 46.32788 | 60.17333 | 37097 ft | 510 kts | 71° |
| 2026-05-04 01:37 | 46.34934 | 60.27083 | 37101 ft | 510 kts | 72° |
| 2026-05-04 01:37 | 46.37084 | 60.36898 | 37102 ft | 510 kts | 72° |
| 2026-05-04 01:38 | 46.39209 | 60.46644 | 37099 ft | 510 kts | 72° |
| 2026-05-04 01:38 | 46.41338 | 60.56453 | 37100 ft | 510 kts | 72° |
| 2026-05-04 01:39 | 46.43461 | 60.66286 | 37102 ft | 510 kts | 72° |
| 2026-05-04 01:39 | 46.45575 | 60.76121 | 37102 ft | 510 kts | 72° |
| 2026-05-04 01:40 | 46.47668 | 60.85899 | 37107 ft | 510 kts | 72° |
| 2026-05-04 01:40 | 46.49768 | 60.95765 | 37108 ft | 510 kts | 72° |
| 2026-05-04 01:41 | 46.51856 | 61.05617 | 37108 ft | 510 kts | 72° |
| 2026-05-04 01:41 | 46.53926 | 61.15432 | 37110 ft | 511 kts | 72° |
| 2026-05-04 01:42 | 46.55997 | 61.25303 | 37113 ft | 511 kts | 72° |
| 2026-05-04 01:42 | 46.58065 | 61.35205 | 37113 ft | 511 kts | 72° |
| 2026-05-04 01:43 | 46.60109 | 61.45043 | 37114 ft | 511 kts | 72° |
| 2026-05-04 01:43 | 46.62160 | 61.54960 | 37113 ft | 511 kts | 72° |
| 2026-05-04 01:44 | 46.64203 | 61.64885 | 37116 ft | 511 kts | 72° |
| 2026-05-04 01:44 | 46.66227 | 61.74772 | 37118 ft | 511 kts | 72° |
| 2026-05-04 01:45 | 46.67916 | 61.83059 | 37115 ft | 512 kts | 72° |
| 2026-05-04 01:45 | 46.70933 | 61.97945 | 37119 ft | 512 kts | 72° |
| 2026-05-04 01:46 | 46.72943 | 62.07923 | 37121 ft | 512 kts | 72° |
| 2026-05-04 01:46 | 46.74944 | 62.17912 | 37126 ft | 512 kts | 72° |
| 2026-05-04 01:47 | 46.76922 | 62.27838 | 37136 ft | 512 kts | 72° |
| 2026-05-04 01:47 | 46.78905 | 62.37833 | 37114 ft | 512 kts | 72° |
| 2026-05-04 01:48 | 46.80864 | 62.47764 | 37131 ft | 512 kts | 72° |
| 2026-05-04 01:48 | 46.82825 | 62.57751 | 37115 ft | 511 kts | 72° |
| 2026-05-04 01:49 | 46.84780 | 62.67758 | 37136 ft | 511 kts | 72° |
| 2026-05-04 01:49 | 46.86711 | 62.77693 | 37138 ft | 511 kts | 73° |
| 2026-05-04 01:50 | 46.88644 | 62.87688 | 37134 ft | 511 kts | 73° |
| 2026-05-04 01:50 | 46.90567 | 62.97688 | 37134 ft | 508 kts | 72° |
| 2026-05-04 01:51 | 46.92461 | 63.07586 | 37141 ft | 508 kts | 73° |
| 2026-05-04 01:51 | 46.94360 | 63.17561 | 37140 ft | 508 kts | 73° |
| 2026-05-04 01:52 | 46.96248 | 63.27530 | 37151 ft | 508 kts | 72° |
| 2026-05-04 01:52 | 46.98112 | 63.37429 | 37132 ft | 507 kts | 72° |
| 2026-05-04 01:53 | 46.99979 | 63.47389 | 37153 ft | 507 kts | 73° |
| 2026-05-04 01:53 | 47.01837 | 63.57360 | 37159 ft | 507 kts | 73° |
| 2026-05-04 01:54 | 47.03688 | 63.67342 | 37156 ft | 507 kts | 73° |
| 2026-05-04 01:54 | 47.05528 | 63.77325 | 37162 ft | 507 kts | 73° |
| 2026-05-04 01:55 | 47.07360 | 63.87312 | 37164 ft | 507 kts | 73° |
| 2026-05-04 01:55 | 47.09172 | 63.97248 | 37160 ft | 507 kts | 73° |
| 2026-05-04 01:56 | 47.10989 | 64.07268 | 37163 ft | 507 kts | 73° |
| 2026-05-04 01:56 | 47.12785 | 64.17223 | 37171 ft | 507 kts | 73° |
| 2026-05-04 01:57 | 47.14586 | 64.27258 | 37165 ft | 507 kts | 73° |
| 2026-05-04 01:57 | 47.16376 | 64.37293 | 37167 ft | 507 kts | 73° |
| 2026-05-04 01:58 | 47.18157 | 64.47329 | 37166 ft | 506 kts | 73° |
| 2026-05-04 01:58 | 47.19922 | 64.57323 | 37170 ft | 506 kts | 73° |
| 2026-05-04 01:59 | 47.21687 | 64.67336 | 37181 ft | 506 kts | 73° |
| 2026-05-04 01:59 | 47.23439 | 64.77327 | 37171 ft | 506 kts | 73° |
| 2026-05-04 02:00 | 47.25191 | 64.87376 | 37178 ft | 506 kts | 74° |
| 2026-05-04 02:00 | 47.26930 | 64.97408 | 37185 ft | 505 kts | 74° |
| 2026-05-04 02:01 | 47.28662 | 65.07445 | 37179 ft | 505 kts | 74° |
| 2026-05-04 02:01 | 47.30370 | 65.17435 | 37194 ft | 505 kts | 74° |
| 2026-05-04 02:02 | 47.32079 | 65.27499 | 37181 ft | 505 kts | 74° |
| 2026-05-04 02:02 | 47.33780 | 65.37561 | 37183 ft | 505 kts | 74° |
| 2026-05-04 02:03 | 47.35462 | 65.47566 | 37191 ft | 505 kts | 74° |
| 2026-05-04 02:03 | 47.37145 | 65.57634 | 37185 ft | 505 kts | 74° |
| 2026-05-04 02:04 | 47.38819 | 65.67707 | 37183 ft | 505 kts | 74° |
| 2026-05-04 02:04 | 47.40485 | 65.77790 | 37189 ft | 505 kts | 74° |
| 2026-05-04 02:05 | 47.42138 | 65.87826 | 37186 ft | 505 kts | 74° |
| 2026-05-04 02:05 | 47.43858 | 65.97907 | 37192 ft | 505 kts | 73° |
| 2026-05-04 02:06 | 47.45588 | 66.07972 | 37196 ft | 506 kts | 73° |
| 2026-05-04 02:06 | 47.47307 | 66.18081 | 37191 ft | 506 kts | 74° |
| 2026-05-04 02:07 | 47.49000 | 66.28140 | 37196 ft | 506 kts | 74° |
| 2026-05-04 02:07 | 47.50691 | 66.38260 | 37204 ft | 506 kts | 74° |
| 2026-05-04 02:08 | 47.52374 | 66.48392 | 37206 ft | 507 kts | 74° |
| 2026-05-04 02:08 | 47.54040 | 66.58473 | 37206 ft | 507 kts | 74° |
| 2026-05-04 02:09 | 47.55708 | 66.68631 | 37214 ft | 507 kts | 74° |
| 2026-05-04 02:09 | 47.57345 | 66.78729 | 37213 ft | 507 kts | 75° |
| 2026-05-04 02:10 | 47.58928 | 66.88905 | 37211 ft | 506 kts | 75° |
| 2026-05-04 02:10 | 47.60500 | 66.99114 | 37213 ft | 506 kts | 75° |
| 2026-05-04 02:11 | 47.62065 | 67.09286 | 37210 ft | 506 kts | 75° |
| 2026-05-04 02:11 | 47.63623 | 67.19437 | 37211 ft | 506 kts | 75° |
| 2026-05-04 02:12 | 47.65179 | 67.29637 | 37217 ft | 507 kts | 75° |
| 2026-05-04 02:12 | 47.66720 | 67.39808 | 37217 ft | 507 kts | 75° |
| 2026-05-04 02:13 | 47.68256 | 67.50011 | 37214 ft | 507 kts | 75° |
| 2026-05-04 02:13 | 47.69788 | 67.60251 | 37214 ft | 507 kts | 75° |
| 2026-05-04 02:14 | 47.71309 | 67.70489 | 37214 ft | 507 kts | 75° |
| 2026-05-04 02:14 | 47.72761 | 67.80672 | 37214 ft | 507 kts | 77° |
| 2026-05-04 02:15 | 47.73778 | 67.91078 | 37214 ft | 508 kts | 80° |
| 2026-05-04 02:15 | 47.74676 | 68.01503 | 37211 ft | 508 kts | 80° |
| 2026-05-04 02:16 | 47.75622 | 68.11911 | 37208 ft | 508 kts | 79° |
| 2026-05-04 02:16 | 47.76604 | 68.22317 | 37211 ft | 508 kts | 79° |
| 2026-05-04 02:17 | 47.77584 | 68.32676 | 37208 ft | 508 kts | 79° |
| 2026-05-04 02:17 | 47.78553 | 68.43038 | 37212 ft | 508 kts | 79° |
| 2026-05-04 02:18 | 47.79517 | 68.53463 | 37207 ft | 508 kts | 80° |
| 2026-05-04 02:18 | 47.80470 | 68.63887 | 37205 ft | 507 kts | 80° |
| 2026-05-04 02:19 | 47.81406 | 68.74241 | 37207 ft | 507 kts | 80° |
| 2026-05-04 02:19 | 47.81958 | 68.84723 | 37211 ft | 509 kts | 88° |
| 2026-05-04 02:20 | 47.81868 | 68.95270 | 37209 ft | 510 kts | 90° |
| 2026-05-04 02:20 | 47.81663 | 69.05818 | 37215 ft | 509 kts | 90° |
| 2026-05-04 02:21 | 47.81442 | 69.16364 | 37207 ft | 508 kts | 91° |
| 2026-05-04 02:21 | 47.81224 | 69.26866 | 37211 ft | 507 kts | 91° |
| 2026-05-04 02:22 | 47.81005 | 69.37313 | 37209 ft | 507 kts | 91° |
| 2026-05-04 02:22 | 47.80778 | 69.47753 | 37208 ft | 507 kts | 91° |
| 2026-05-04 02:23 | 47.80540 | 69.58251 | 37202 ft | 507 kts | 91° |
| 2026-05-04 02:23 | 47.80291 | 69.68755 | 37209 ft | 507 kts | 91° |
| 2026-05-04 02:24 | 47.80035 | 69.79197 | 37210 ft | 507 kts | 91° |
| 2026-05-04 02:24 | 47.79767 | 69.89711 | 37204 ft | 508 kts | 92° |
| 2026-05-04 02:25 | 47.79489 | 70.00229 | 37202 ft | 509 kts | 92° |
| 2026-05-04 02:25 | 47.79203 | 70.10700 | 37200 ft | 509 kts | 92° |
| 2026-05-04 02:26 | 47.78906 | 70.21229 | 37191 ft | 508 kts | 92° |
| 2026-05-04 02:26 | 47.78601 | 70.31734 | 37195 ft | 509 kts | 92° |
| 2026-05-04 02:27 | 47.78283 | 70.42284 | 37196 ft | 510 kts | 92° |
| 2026-05-04 02:27 | 47.77958 | 70.52770 | 37197 ft | 510 kts | 92° |
| 2026-05-04 02:28 | 47.77622 | 70.63329 | 37201 ft | 510 kts | 92° |
| 2026-05-04 02:28 | 47.77282 | 70.73811 | 37200 ft | 511 kts | 93° |
| 2026-05-04 02:29 | 47.76920 | 70.84388 | 37204 ft | 512 kts | 93° |
| 2026-05-04 02:29 | 47.76550 | 70.94918 | 37197 ft | 512 kts | 93° |
| 2026-05-04 02:30 | 47.76171 | 71.05506 | 37199 ft | 512 kts | 93° |
| 2026-05-04 02:30 | 47.75784 | 71.16041 | 37209 ft | 512 kts | 93° |
| 2026-05-04 02:31 | 47.75387 | 71.26630 | 37204 ft | 513 kts | 93° |
| 2026-05-04 02:31 | 47.74977 | 71.37246 | 37187 ft | 514 kts | 93° |
| 2026-05-04 02:32 | 47.74558 | 71.47861 | 37189 ft | 514 kts | 93° |
| 2026-05-04 02:32 | 47.74133 | 71.58403 | 37186 ft | 514 kts | 94° |
| 2026-05-04 02:33 | 47.73694 | 71.69027 | 37192 ft | 515 kts | 94° |
| 2026-05-04 02:33 | 47.73321 | 71.77868 | 37187 ft | 516 kts | 94° |
| 2026-05-04 02:34 | 47.72841 | 71.88513 | 37195 ft | 516 kts | 95° |
| 2026-05-04 02:34 | 47.72223 | 71.99138 | 37192 ft | 516 kts | 95° |
| 2026-05-04 02:35 | 47.71578 | 72.09696 | 37197 ft | 516 kts | 95° |
| 2026-05-04 02:35 | 47.70937 | 72.20330 | 37195 ft | 517 kts | 95° |
| 2026-05-04 02:36 | 47.70297 | 72.30986 | 37203 ft | 517 kts | 95° |
| 2026-05-04 02:36 | 47.69657 | 72.41533 | 37190 ft | 516 kts | 95° |
| 2026-05-04 02:37 | 47.69001 | 72.52165 | 37193 ft | 516 kts | 95° |
| 2026-05-04 02:37 | 47.68340 | 72.62711 | 37202 ft | 516 kts | 95° |
| 2026-05-04 02:38 | 47.67664 | 72.73330 | 37202 ft | 516 kts | 95° |
| 2026-05-04 02:38 | 47.66979 | 72.83930 | 37189 ft | 516 kts | 96° |
| 2026-05-04 02:39 | 47.66283 | 72.94540 | 37198 ft | 516 kts | 96° |
| 2026-05-04 02:39 | 47.65579 | 73.05134 | 37203 ft | 517 kts | 96° |
| 2026-05-04 02:40 | 47.64868 | 73.15676 | 37205 ft | 517 kts | 96° |
| 2026-05-04 02:40 | 47.64142 | 73.26304 | 37204 ft | 517 kts | 96° |
| 2026-05-04 02:41 | 47.63407 | 73.36915 | 37205 ft | 516 kts | 96° |
| 2026-05-04 02:41 | 47.62668 | 73.47434 | 37213 ft | 515 kts | 96° |
| 2026-05-04 02:42 | 47.61914 | 73.58030 | 37218 ft | 516 kts | 96° |
| 2026-05-04 02:42 | 47.61155 | 73.68556 | 37202 ft | 516 kts | 96° |
| 2026-05-04 02:43 | 47.60381 | 73.79155 | 37203 ft | 516 kts | 96° |
| 2026-05-04 02:43 | 47.59598 | 73.89734 | 37211 ft | 516 kts | 96° |
| 2026-05-04 02:44 | 47.58804 | 74.00327 | 37207 ft | 517 kts | 97° |
| 2026-05-04 02:44 | 47.58005 | 74.10867 | 37216 ft | 518 kts | 97° |
| 2026-05-04 02:45 | 47.57189 | 74.21487 | 37209 ft | 518 kts | 97° |
| 2026-05-04 02:45 | 47.56364 | 74.32090 | 37213 ft | 517 kts | 97° |
| 2026-05-04 02:46 | 47.55535 | 74.42634 | 37221 ft | 518 kts | 97° |
| 2026-05-04 02:46 | 47.54690 | 74.53233 | 37214 ft | 518 kts | 97° |
| 2026-05-04 02:47 | 47.53834 | 74.63848 | 37210 ft | 518 kts | 97° |
| 2026-05-04 02:47 | 47.52974 | 74.74393 | 37223 ft | 518 kts | 97° |
| 2026-05-04 02:48 | 47.52100 | 74.85000 | 37218 ft | 519 kts | 98° |
| 2026-05-04 02:48 | 47.51214 | 74.95613 | 37223 ft | 519 kts | 98° |
| 2026-05-04 02:49 | 47.50324 | 75.06167 | 37208 ft | 519 kts | 98° |
| 2026-05-04 02:49 | 47.49418 | 75.16780 | 37201 ft | 519 kts | 98° |
| 2026-05-04 02:50 | 47.48503 | 75.27386 | 37195 ft | 519 kts | 98° |
| 2026-05-04 02:50 | 47.47583 | 75.37934 | 37201 ft | 520 kts | 98° |
| 2026-05-04 02:51 | 47.46647 | 75.48542 | 37199 ft | 520 kts | 98° |
| 2026-05-04 02:51 | 47.45700 | 75.59162 | 37200 ft | 520 kts | 98° |
| 2026-05-04 02:52 | 47.44749 | 75.69716 | 37201 ft | 520 kts | 98° |
| 2026-05-04 02:52 | 47.43783 | 75.80325 | 37197 ft | 522 kts | 99° |
| 2026-05-04 02:53 | 47.42805 | 75.90956 | 37202 ft | 522 kts | 99° |
| 2026-05-04 02:53 | 47.41816 | 76.01592 | 37201 ft | 522 kts | 99° |
| 2026-05-04 02:54 | 47.40824 | 76.12155 | 37200 ft | 522 kts | 99° |
| 2026-05-04 02:54 | 47.39815 | 76.22790 | 37185 ft | 522 kts | 99° |
| 2026-05-04 02:55 | 47.38290 | 76.38659 | 37184 ft | 522 kts | 99° |
| 2026-05-04 02:56 | 47.37255 | 76.49295 | 37184 ft | 522 kts | 99° |
| 2026-05-04 02:56 | 47.36219 | 76.59834 | 37186 ft | 522 kts | 99° |
| 2026-05-04 02:57 | 47.35166 | 76.70454 | 37174 ft | 523 kts | 99° |
| 2026-05-04 02:57 | 47.34100 | 76.81095 | 37172 ft | 523 kts | 99° |
| 2026-05-04 02:58 | 47.33026 | 76.91714 | 37167 ft | 523 kts | 99° |
| 2026-05-04 02:58 | 47.31947 | 77.02282 | 37240 ft | 523 kts | 99° |
| 2026-05-04 02:58 | 47.31406 | 77.07588 | 37501 ft | 521 kts | 99° |
| 2026-05-04 02:59 | 47.31000 | 77.12896 | 37791 ft | 520 kts | 96° |
| 2026-05-04 02:59 | 47.30734 | 77.18147 | 38019 ft | 519 kts | 94° |
| 2026-05-04 02:59 | 47.30517 | 77.23451 | 38207 ft | 518 kts | 94° |
| 2026-05-04 02:59 | 47.30301 | 77.28762 | 38351 ft | 518 kts | 94° |
| 2026-05-04 03:00 | 47.30067 | 77.34068 | 38540 ft | 518 kts | 95° |
| 2026-05-04 03:00 | 47.29811 | 77.39363 | 38710 ft | 517 kts | 95° |
| 2026-05-04 03:00 | 47.29537 | 77.44648 | 38841 ft | 517 kts | 95° |
| 2026-05-04 03:00 | 47.29251 | 77.49929 | 38957 ft | 517 kts | 95° |
| 2026-05-04 03:01 | 47.28961 | 77.55152 | 39037 ft | 518 kts | 95° |
| 2026-05-04 03:01 | 47.28363 | 77.65736 | 39156 ft | 520 kts | 95° |
| 2026-05-04 03:02 | 47.27753 | 77.76388 | 39157 ft | 521 kts | 96° |
| 2026-05-04 03:02 | 47.27136 | 77.87036 | 39157 ft | 521 kts | 96° |
| 2026-05-04 03:03 | 47.26515 | 77.97602 | 39157 ft | 521 kts | 96° |
| 2026-05-04 03:03 | 47.25880 | 78.08227 | 39149 ft | 521 kts | 96° |
| 2026-05-04 03:04 | 47.25234 | 78.18866 | 39146 ft | 521 kts | 96° |
| 2026-05-04 03:04 | 47.24578 | 78.29506 | 39145 ft | 521 kts | 96° |
| 2026-05-04 03:05 | 47.23916 | 78.40067 | 39146 ft | 521 kts | 96° |
| 2026-05-04 03:05 | 47.23242 | 78.50684 | 39145 ft | 520 kts | 96° |
| 2026-05-04 03:06 | 47.22557 | 78.61299 | 39137 ft | 520 kts | 96° |
| 2026-05-04 03:06 | 47.21869 | 78.71830 | 39138 ft | 520 kts | 96° |
| 2026-05-04 03:07 | 47.21164 | 78.82443 | 39133 ft | 520 kts | 96° |
| 2026-05-04 03:07 | 47.20456 | 78.92973 | 39144 ft | 519 kts | 96° |
| 2026-05-04 03:08 | 47.19734 | 79.03555 | 39135 ft | 519 kts | 96° |
| 2026-05-04 03:08 | 47.19004 | 79.14111 | 39124 ft | 519 kts | 96° |
| 2026-05-04 03:09 | 47.18257 | 79.24676 | 39125 ft | 519 kts | 97° |
| 2026-05-04 03:09 | 47.17483 | 79.35175 | 39124 ft | 519 kts | 97° |
| 2026-05-04 03:10 | 47.16695 | 79.45728 | 39118 ft | 519 kts | 97° |
| 2026-05-04 03:10 | 47.15899 | 79.56306 | 39116 ft | 520 kts | 97° |
| 2026-05-04 03:11 | 47.15097 | 79.66871 | 39117 ft | 520 kts | 97° |
| 2026-05-04 03:11 | 47.14285 | 79.77435 | 39102 ft | 521 kts | 97° |
| 2026-05-04 03:12 | 47.13467 | 79.87957 | 39104 ft | 522 kts | 97° |
| 2026-05-04 03:12 | 47.12655 | 79.98555 | 39086 ft | 522 kts | 97° |
| 2026-05-04 03:13 | 47.11838 | 80.09166 | 39069 ft | 522 kts | 97° |
| 2026-05-04 03:13 | 47.11014 | 80.19712 | 39084 ft | 524 kts | 97° |
| 2026-05-04 03:14 | 47.10173 | 80.30331 | 39054 ft | 524 kts | 98° |
| 2026-05-04 03:14 | 47.09321 | 80.40965 | 39054 ft | 524 kts | 98° |
| 2026-05-04 03:15 | 47.08458 | 80.51602 | 39043 ft | 524 kts | 98° |
| 2026-05-04 03:15 | 47.07590 | 80.62186 | 39030 ft | 525 kts | 98° |
| 2026-05-04 03:16 | 47.06705 | 80.72850 | 39027 ft | 526 kts | 98° |
| 2026-05-04 03:16 | 47.05815 | 80.83448 | 39023 ft | 526 kts | 98° |
| 2026-05-04 03:17 | 47.04909 | 80.94108 | 39021 ft | 525 kts | 98° |
| 2026-05-04 03:17 | 47.03997 | 81.04763 | 39021 ft | 526 kts | 98° |
| 2026-05-04 03:18 | 47.03080 | 81.15347 | 39009 ft | 526 kts | 98° |
| 2026-05-04 03:18 | 47.02142 | 81.26014 | 39009 ft | 526 kts | 98° |
| 2026-05-04 03:19 | 47.01195 | 81.36677 | 39000 ft | 526 kts | 99° |
| 2026-05-04 03:19 | 47.00247 | 81.47244 | 39012 ft | 526 kts | 99° |
| 2026-05-04 03:20 | 46.99284 | 81.57875 | 39008 ft | 526 kts | 99° |
| 2026-05-04 03:20 | 46.98309 | 81.68520 | 39008 ft | 526 kts | 99° |
| 2026-05-04 03:21 | 46.97325 | 81.79164 | 39008 ft | 526 kts | 99° |
| 2026-05-04 03:21 | 46.96337 | 81.89727 | 38997 ft | 526 kts | 99° |
| 2026-05-04 03:22 | 46.95335 | 82.00358 | 39003 ft | 527 kts | 99° |
| 2026-05-04 03:22 | 46.94310 | 82.10992 | 38997 ft | 527 kts | 99° |
| 2026-05-04 03:23 | 46.93281 | 82.21537 | 39004 ft | 527 kts | 99° |
| 2026-05-04 03:23 | 46.92238 | 82.32157 | 38999 ft | 527 kts | 100° |
| 2026-05-04 03:24 | 46.91187 | 82.42762 | 38997 ft | 527 kts | 100° |
| 2026-05-04 03:24 | 46.90305 | 82.51585 | 39011 ft | 527 kts | 100° |
| 2026-05-04 03:25 | 46.89060 | 82.63935 | 39003 ft | 527 kts | 100° |
| 2026-05-04 03:25 | 46.88154 | 82.72825 | 39005 ft | 527 kts | 100° |
| 2026-05-04 03:26 | 46.87023 | 82.83364 | 38994 ft | 527 kts | 104° |
| 2026-05-04 03:26 | 46.84499 | 82.93302 | 39013 ft | 518 kts | 123° |
| 2026-05-04 03:27 | 46.80855 | 83.02295 | 38993 ft | 517 kts | 126° |
| 2026-05-04 03:27 | 46.76991 | 83.11182 | 38994 ft | 517 kts | 126° |
| 2026-05-04 03:28 | 46.73121 | 83.20037 | 38997 ft | 516 kts | 126° |
| 2026-05-04 03:28 | 46.69298 | 83.28837 | 38987 ft | 516 kts | 126° |
| 2026-05-04 03:29 | 46.65455 | 83.37697 | 38995 ft | 516 kts | 126° |
| 2026-05-04 03:29 | 46.61357 | 83.46257 | 38992 ft | 514 kts | 130° |
| 2026-05-04 03:30 | 46.57080 | 83.54512 | 38978 ft | 513 kts | 131° |
| 2026-05-04 03:30 | 46.52795 | 83.62835 | 38993 ft | 515 kts | 130° |
| 2026-05-04 03:31 | 46.48537 | 83.71218 | 38996 ft | 515 kts | 130° |
| 2026-05-04 03:31 | 46.44324 | 83.79542 | 38987 ft | 515 kts | 130° |
| 2026-05-04 03:32 | 46.40071 | 83.87925 | 38973 ft | 515 kts | 130° |
| 2026-05-04 03:32 | 46.35814 | 83.96280 | 38988 ft | 515 kts | 130° |
| 2026-05-04 03:33 | 46.31570 | 84.04586 | 38993 ft | 516 kts | 130° |
| 2026-05-04 03:33 | 46.27282 | 84.12949 | 38985 ft | 517 kts | 130° |
| 2026-05-04 03:34 | 46.22976 | 84.21319 | 38982 ft | 517 kts | 131° |
| 2026-05-04 03:34 | 46.18685 | 84.29574 | 38968 ft | 517 kts | 131° |
| 2026-05-04 03:35 | 46.14362 | 84.37865 | 38960 ft | 516 kts | 131° |
| 2026-05-04 03:35 | 46.10043 | 84.46134 | 38936 ft | 517 kts | 131° |
| 2026-05-04 03:36 | 46.05690 | 84.54447 | 38933 ft | 518 kts | 131° |
| 2026-05-04 03:36 | 46.01366 | 84.62684 | 38915 ft | 519 kts | 131° |
| 2026-05-04 03:37 | 45.97011 | 84.70956 | 38922 ft | 518 kts | 131° |
| 2026-05-04 03:37 | 45.92643 | 84.79227 | 38906 ft | 518 kts | 131° |
| 2026-05-04 03:38 | 45.88279 | 84.87466 | 38909 ft | 518 kts | 131° |
| 2026-05-04 03:38 | 45.83900 | 84.95710 | 38904 ft | 519 kts | 131° |
| 2026-05-04 03:39 | 45.79529 | 85.03911 | 38896 ft | 520 kts | 131° |
| 2026-05-04 03:39 | 45.75118 | 85.12167 | 38898 ft | 520 kts | 131° |
| 2026-05-04 03:40 | 45.70738 | 85.20342 | 38894 ft | 520 kts | 132° |
| 2026-05-04 03:40 | 45.66338 | 85.28560 | 38882 ft | 520 kts | 132° |
| 2026-05-04 03:41 | 45.61935 | 85.36807 | 38898 ft | 521 kts | 132° |
| 2026-05-04 03:41 | 45.57555 | 85.44990 | 38894 ft | 521 kts | 132° |
| 2026-05-04 03:42 | 45.53132 | 85.53221 | 38899 ft | 521 kts | 132° |
| 2026-05-04 03:42 | 45.48710 | 85.61424 | 38877 ft | 521 kts | 132° |
| 2026-05-04 03:43 | 45.44276 | 85.69623 | 38895 ft | 522 kts | 132° |
| 2026-05-04 03:43 | 45.39871 | 85.77747 | 38896 ft | 522 kts | 132° |
| 2026-05-04 03:44 | 45.35418 | 85.85936 | 38899 ft | 521 kts | 132° |
| 2026-05-04 03:44 | 45.30971 | 85.94089 | 38876 ft | 521 kts | 133° |
| 2026-05-04 03:45 | 45.26542 | 86.02186 | 38900 ft | 522 kts | 133° |
| 2026-05-04 03:45 | 45.22066 | 86.10346 | 38900 ft | 522 kts | 133° |
| 2026-05-04 03:46 | 45.17599 | 86.18466 | 38903 ft | 523 kts | 133° |
| 2026-05-04 03:46 | 45.13116 | 86.26590 | 38905 ft | 524 kts | 133° |
| 2026-05-04 03:47 | 45.08651 | 86.34660 | 38905 ft | 524 kts | 133° |
| 2026-05-04 03:47 | 45.04143 | 86.42787 | 38906 ft | 524 kts | 133° |
| 2026-05-04 03:48 | 44.99626 | 86.50906 | 38911 ft | 524 kts | 133° |
| 2026-05-04 03:48 | 44.95143 | 86.58940 | 38903 ft | 524 kts | 133° |
| 2026-05-04 03:49 | 44.90606 | 86.67046 | 38915 ft | 526 kts | 133° |
| 2026-05-04 03:49 | 44.86088 | 86.75098 | 38915 ft | 526 kts | 133° |
| 2026-05-04 03:50 | 44.81525 | 86.83202 | 38911 ft | 526 kts | 133° |
| 2026-05-04 03:50 | 44.76930 | 86.91190 | 38914 ft | 526 kts | 134° |
| 2026-05-04 03:51 | 44.72296 | 86.99170 | 38913 ft | 527 kts | 134° |
| 2026-05-04 03:51 | 44.67657 | 87.07187 | 38912 ft | 528 kts | 134° |
| 2026-05-04 03:52 | 44.63046 | 87.15159 | 38915 ft | 528 kts | 134° |
| 2026-05-04 03:52 | 44.58397 | 87.23179 | 38918 ft | 528 kts | 134° |
| 2026-05-04 03:53 | 44.53755 | 87.31188 | 38919 ft | 529 kts | 133° |
| 2026-05-04 03:53 | 44.49281 | 87.39342 | 38914 ft | 531 kts | 131° |
| 2026-05-04 03:54 | 44.44819 | 87.47634 | 38911 ft | 532 kts | 131° |
| 2026-05-04 03:54 | 44.40336 | 87.55884 | 38911 ft | 532 kts | 132° |
| 2026-05-04 03:55 | 44.35833 | 87.64093 | 38917 ft | 532 kts | 132° |
| 2026-05-04 03:55 | 44.31354 | 87.72250 | 38918 ft | 533 kts | 131° |
| 2026-05-04 03:56 | 44.26892 | 87.80553 | 38919 ft | 535 kts | 131° |
| 2026-05-04 03:56 | 44.22481 | 87.88945 | 38924 ft | 538 kts | 127° |
| 2026-05-04 03:56 | 44.20675 | 87.93542 | 38912 ft | 543 kts | 116° |
| 2026-05-04 03:57 | 44.19430 | 87.98533 | 38927 ft | 547 kts | 105° |
| 2026-05-04 03:57 | 44.18852 | 88.03773 | 38938 ft | 549 kts | 93° |
| 2026-05-04 03:57 | 44.18994 | 88.09068 | 38942 ft | 548 kts | 80° |
| 2026-05-04 03:58 | 44.21154 | 88.24669 | 38947 ft | 549 kts | 76° |
| 2026-05-04 03:58 | 44.22778 | 88.35061 | 38931 ft | 548 kts | 76° |
| 2026-05-04 03:59 | 44.24349 | 88.45474 | 38929 ft | 548 kts | 76° |
| 2026-05-04 03:59 | 44.25873 | 88.55884 | 38924 ft | 547 kts | 76° |
| 2026-05-04 04:00 | 44.27379 | 88.66297 | 38911 ft | 547 kts | 76° |
| 2026-05-04 04:00 | 44.28870 | 88.76665 | 38920 ft | 547 kts | 76° |
| 2026-05-04 04:01 | 44.30364 | 88.87122 | 38901 ft | 547 kts | 76° |
| 2026-05-04 04:01 | 44.31832 | 88.97470 | 38900 ft | 545 kts | 76° |
| 2026-05-04 04:02 | 44.33299 | 89.07871 | 38895 ft | 545 kts | 76° |
| 2026-05-04 04:02 | 44.34759 | 89.18293 | 38887 ft | 545 kts | 77° |
| 2026-05-04 04:03 | 44.36199 | 89.28649 | 38881 ft | 545 kts | 76° |
| 2026-05-04 04:03 | 44.37633 | 89.39035 | 38885 ft | 544 kts | 76° |
| 2026-05-04 04:04 | 44.39060 | 89.49441 | 38881 ft | 544 kts | 77° |
| 2026-05-04 04:04 | 44.40470 | 89.59795 | 38877 ft | 544 kts | 77° |
| 2026-05-04 04:05 | 44.40999 | 89.70362 | 38870 ft | 547 kts | 95° |
| 2026-05-04 04:05 | 44.39381 | 89.80746 | 38871 ft | 546 kts | 107° |
| 2026-05-04 04:06 | 44.37199 | 89.90863 | 38882 ft | 547 kts | 108° |
| 2026-05-04 04:06 | 44.34917 | 90.01021 | 38880 ft | 547 kts | 108° |
| 2026-05-04 04:07 | 44.32655 | 90.11196 | 38875 ft | 547 kts | 108° |
| 2026-05-04 04:07 | 44.30429 | 90.21287 | 38874 ft | 547 kts | 108° |
| 2026-05-04 04:08 | 44.28182 | 90.31463 | 38874 ft | 547 kts | 108° |
| 2026-05-04 04:08 | 44.25947 | 90.41532 | 38880 ft | 547 kts | 108° |
| 2026-05-04 04:09 | 44.23687 | 90.51663 | 38872 ft | 546 kts | 108° |
| 2026-05-04 04:09 | 44.21419 | 90.61776 | 38876 ft | 547 kts | 108° |
| 2026-05-04 04:10 | 44.19199 | 90.71630 | 38876 ft | 547 kts | 108° |
| 2026-05-04 04:10 | 44.16921 | 90.81696 | 38883 ft | 547 kts | 108° |
| 2026-05-04 04:11 | 44.14625 | 90.91796 | 38877 ft | 547 kts | 108° |
| 2026-05-04 04:11 | 44.12317 | 91.01899 | 38888 ft | 547 kts | 108° |
| 2026-05-04 04:12 | 44.10001 | 91.11986 | 38873 ft | 547 kts | 108° |
| 2026-05-04 04:12 | 44.08073 | 91.20363 | 38888 ft | 546 kts | 108° |
| 2026-05-04 04:13 | 44.05750 | 91.30418 | 38885 ft | 546 kts | 108° |
| 2026-05-04 04:13 | 44.03415 | 91.40477 | 38885 ft | 546 kts | 108° |
| 2026-05-04 04:14 | 44.01081 | 91.50462 | 38889 ft | 546 kts | 108° |
| 2026-05-04 04:14 | 43.98697 | 91.60510 | 38891 ft | 546 kts | 108° |
| 2026-05-04 04:15 | 43.96324 | 91.70463 | 38897 ft | 546 kts | 108° |
| 2026-05-04 04:15 | 43.93928 | 91.80493 | 38898 ft | 547 kts | 108° |
| 2026-05-04 04:16 | 43.91524 | 91.90523 | 38902 ft | 546 kts | 108° |
| 2026-05-04 04:16 | 43.89132 | 92.00444 | 38896 ft | 545 kts | 109° |
| 2026-05-04 04:17 | 43.86719 | 92.10414 | 38899 ft | 545 kts | 109° |
| 2026-05-04 04:17 | 43.84302 | 92.20355 | 38896 ft | 544 kts | 109° |
| 2026-05-04 04:18 | 43.81876 | 92.30293 | 38882 ft | 544 kts | 109° |
| 2026-05-04 04:18 | 43.79447 | 92.40196 | 38894 ft | 542 kts | 109° |
| 2026-05-04 04:19 | 43.77028 | 92.50023 | 38890 ft | 542 kts | 109° |
| 2026-05-04 04:19 | 43.74580 | 92.59919 | 38880 ft | 542 kts | 109° |
| 2026-05-04 04:20 | 43.72133 | 92.69773 | 38883 ft | 542 kts | 109° |
| 2026-05-04 04:20 | 43.69689 | 92.79571 | 38886 ft | 541 kts | 109° |
| 2026-05-04 04:21 | 43.67225 | 92.89412 | 38887 ft | 541 kts | 109° |
| 2026-05-04 04:21 | 43.64768 | 92.99179 | 38895 ft | 541 kts | 109° |
| 2026-05-04 04:22 | 43.62371 | 93.09040 | 38901 ft | 541 kts | 108° |
| 2026-05-04 04:22 | 43.60032 | 93.18921 | 38899 ft | 539 kts | 108° |
| 2026-05-04 04:23 | 43.57701 | 93.28698 | 38908 ft | 539 kts | 108° |
| 2026-05-04 04:23 | 43.55329 | 93.38538 | 38908 ft | 540 kts | 108° |
| 2026-05-04 04:24 | 43.52957 | 93.48309 | 38897 ft | 540 kts | 108° |
| 2026-05-04 04:24 | 43.50566 | 93.58116 | 38899 ft | 540 kts | 108° |
| 2026-05-04 04:25 | 43.48165 | 93.67925 | 38900 ft | 540 kts | 108° |
| 2026-05-04 04:25 | 43.45770 | 93.77669 | 38900 ft | 540 kts | 108° |
| 2026-05-04 04:26 | 43.43353 | 93.87461 | 38895 ft | 539 kts | 108° |
| 2026-05-04 04:26 | 43.40931 | 93.97233 | 38899 ft | 538 kts | 109° |
| 2026-05-04 04:27 | 43.38516 | 94.06926 | 38899 ft | 539 kts | 109° |
| 2026-05-04 04:27 | 43.36074 | 94.16695 | 38895 ft | 538 kts | 109° |
| 2026-05-04 04:28 | 43.33630 | 94.26433 | 38900 ft | 538 kts | 109° |
| 2026-05-04 04:28 | 43.31195 | 94.36093 | 38898 ft | 538 kts | 109° |
| 2026-05-04 04:29 | 43.28735 | 94.45815 | 38887 ft | 537 kts | 109° |
| 2026-05-04 04:29 | 43.26285 | 94.55453 | 38886 ft | 537 kts | 109° |
| 2026-05-04 04:30 | 43.23813 | 94.65138 | 38882 ft | 536 kts | 109° |
| 2026-05-04 04:30 | 43.21336 | 94.74801 | 38857 ft | 536 kts | 109° |
| 2026-05-04 04:31 | 43.18854 | 94.84446 | 38851 ft | 536 kts | 109° |
| 2026-05-04 04:31 | 43.16381 | 94.94018 | 38830 ft | 536 kts | 109° |
| 2026-05-04 04:32 | 43.13617 | 95.03515 | 38812 ft | 536 kts | 119° |
| 2026-05-04 04:32 | 43.09111 | 95.11526 | 38809 ft | 530 kts | 141° |
| 2026-05-04 04:33 | 43.03245 | 95.17576 | 38811 ft | 527 kts | 148° |
| 2026-05-04 04:33 | 42.97187 | 95.23145 | 38794 ft | 527 kts | 149° |
| 2026-05-04 04:34 | 42.91079 | 95.28706 | 38795 ft | 528 kts | 149° |
| 2026-05-04 04:34 | 42.84976 | 95.34316 | 38792 ft | 528 kts | 148° |
| 2026-05-04 04:35 | 42.78934 | 95.39897 | 38778 ft | 527 kts | 148° |
| 2026-05-04 04:35 | 42.72845 | 95.45516 | 38777 ft | 527 kts | 148° |
| 2026-05-04 04:36 | 42.66765 | 95.51112 | 38766 ft | 527 kts | 148° |
| 2026-05-04 04:36 | 42.60712 | 95.56666 | 38768 ft | 528 kts | 148° |
| 2026-05-04 04:37 | 42.48501 | 95.67834 | 38769 ft | 528 kts | 149° |
| 2026-05-04 04:38 | 42.43040 | 95.74425 | 38774 ft | 533 kts | 129° |
| 2026-05-04 04:38 | 42.40957 | 95.78561 | 38771 ft | 532 kts | 118° |
| 2026-05-04 04:38 | 42.39461 | 95.83145 | 38776 ft | 531 kts | 107° |
| 2026-05-04 04:39 | 42.38620 | 95.87983 | 38774 ft | 528 kts | 95° |
| 2026-05-04 04:39 | 42.38299 | 95.92918 | 38773 ft | 527 kts | 91° |
| 2026-05-04 04:39 | 42.38016 | 96.02838 | 38779 ft | 527 kts | 89° |
| 2026-05-04 04:40 | 42.37818 | 96.12759 | 38785 ft | 527 kts | 89° |
| 2026-05-04 04:40 | 42.37571 | 96.22624 | 38782 ft | 526 kts | 89° |
| 2026-05-04 04:41 | 42.37280 | 96.32528 | 38782 ft | 526 kts | 90° |
| 2026-05-04 04:41 | 42.36973 | 96.42376 | 38782 ft | 526 kts | 90° |
| 2026-05-04 04:42 | 42.36657 | 96.52270 | 38781 ft | 525 kts | 90° |
| 2026-05-04 04:42 | 42.36335 | 96.62146 | 38778 ft | 525 kts | 90° |
| 2026-05-04 04:43 | 42.36005 | 96.72025 | 38774 ft | 525 kts | 90° |
| 2026-05-04 04:43 | 42.35669 | 96.81834 | 38774 ft | 525 kts | 90° |
| 2026-05-04 04:44 | 42.35322 | 96.91689 | 38774 ft | 524 kts | 90° |
| 2026-05-04 04:44 | 42.34967 | 97.01552 | 38766 ft | 524 kts | 90° |
| 2026-05-04 04:45 | 42.34604 | 97.11409 | 38765 ft | 524 kts | 90° |
| 2026-05-04 04:47 | 42.33269 | 97.45799 | 38758 ft | 524 kts | 91° |
| 2026-05-04 04:47 | 42.32871 | 97.55578 | 38761 ft | 524 kts | 91° |
| 2026-05-04 04:48 | 42.32461 | 97.65435 | 38764 ft | 523 kts | 91° |
| 2026-05-04 04:49 | 42.31406 | 97.89927 | 38763 ft | 523 kts | 91° |
| 2026-05-04 04:49 | 42.30971 | 97.99688 | 38758 ft | 523 kts | 91° |
| 2026-05-04 04:50 | 42.30525 | 98.09488 | 38754 ft | 522 kts | 91° |
| 2026-05-04 04:50 | 42.30071 | 98.19299 | 38754 ft | 522 kts | 91° |
| 2026-05-04 04:51 | 42.29610 | 98.29086 | 38753 ft | 522 kts | 91° |
| 2026-05-04 04:51 | 42.29139 | 98.38804 | 38751 ft | 522 kts | 91° |
| 2026-05-04 04:52 | 42.28631 | 98.48594 | 38751 ft | 521 kts | 92° |
| 2026-05-04 04:52 | 42.28113 | 98.58369 | 38749 ft | 521 kts | 92° |
| 2026-05-04 04:53 | 42.27592 | 98.68135 | 38744 ft | 521 kts | 92° |
| 2026-05-04 04:53 | 42.27069 | 98.77842 | 38754 ft | 521 kts | 92° |
| 2026-05-04 04:54 | 42.26534 | 98.87622 | 38747 ft | 522 kts | 92° |
| 2026-05-04 04:54 | 42.25991 | 98.97395 | 38749 ft | 522 kts | 92° |
| 2026-05-04 04:55 | 42.25438 | 99.07173 | 38751 ft | 522 kts | 92° |
| 2026-05-04 04:55 | 42.24881 | 99.16893 | 38746 ft | 522 kts | 92° |
| 2026-05-04 04:56 | 42.24311 | 99.26682 | 38744 ft | 522 kts | 92° |
| 2026-05-04 04:56 | 42.23734 | 99.36457 | 38743 ft | 522 kts | 92° |
| 2026-05-04 04:57 | 42.23151 | 99.46175 | 38744 ft | 522 kts | 92° |
| 2026-05-04 04:57 | 42.22556 | 99.55965 | 38745 ft | 522 kts | 92° |
| 2026-05-04 04:58 | 42.21954 | 99.65731 | 38742 ft | 521 kts | 92° |
| 2026-05-04 04:58 | 42.21349 | 99.75423 | 38748 ft | 521 kts | 92° |
| 2026-05-04 04:59 | 42.20731 | 99.85182 | 38748 ft | 521 kts | 92° |
| 2026-05-04 04:59 | 42.20105 | 99.94921 | 38742 ft | 520 kts | 92° |
| 2026-05-04 05:00 | 42.19472 | 100.04650 | 38747 ft | 521 kts | 92° |
| 2026-05-04 05:01 | 42.18510 | 100.19195 | 38747 ft | 520 kts | 92° |
| 2026-05-04 05:01 | 42.17857 | 100.28908 | 38743 ft | 519 kts | 92° |
| 2026-05-04 05:02 | 42.17196 | 100.38615 | 38748 ft | 518 kts | 93° |
| 2026-05-04 05:02 | 42.16533 | 100.48250 | 38744 ft | 518 kts | 93° |
| 2026-05-04 05:03 | 42.15857 | 100.57933 | 38753 ft | 518 kts | 93° |
| 2026-05-04 05:04 | 42.14488 | 100.77194 | 38742 ft | 517 kts | 93° |
| 2026-05-04 05:04 | 42.13910 | 100.85202 | 38748 ft | 517 kts | 93° |
| 2026-05-04 05:06 | 42.08916 | 101.18334 | 38746 ft | 521 kts | 108° |
| 2026-05-04 05:06 | 42.07696 | 101.22941 | 38745 ft | 521 kts | 108° |
| 2026-05-04 05:07 | 42.05244 | 101.32126 | 38747 ft | 521 kts | 108° |
| 2026-05-04 05:07 | 42.02806 | 101.41293 | 38749 ft | 520 kts | 108° |
| 2026-05-04 05:09 | 41.91846 | 101.82414 | 38756 ft | 518 kts | 108° |
| 2026-05-04 05:10 | 41.89390 | 101.91535 | 38763 ft | 519 kts | 108° |
| 2026-05-04 05:10 | 41.86942 | 102.00592 | 38758 ft | 519 kts | 108° |
| 2026-05-04 05:11 | 41.84476 | 102.09683 | 38765 ft | 518 kts | 108° |
| 2026-05-04 05:11 | 41.82001 | 102.18770 | 38759 ft | 518 kts | 108° |
| 2026-05-04 05:12 | 41.79538 | 102.27782 | 38761 ft | 518 kts | 109° |
| 2026-05-04 05:12 | 41.77052 | 102.36846 | 38763 ft | 518 kts | 109° |
| 2026-05-04 05:13 | 41.74560 | 102.45901 | 38764 ft | 517 kts | 109° |
| 2026-05-04 05:13 | 41.72073 | 102.54902 | 38759 ft | 517 kts | 109° |
| 2026-05-04 05:14 | 41.69566 | 102.63946 | 38763 ft | 517 kts | 109° |
| 2026-05-04 05:14 | 41.67061 | 102.72959 | 38763 ft | 517 kts | 109° |
| 2026-05-04 05:15 | 41.64551 | 102.81962 | 38763 ft | 516 kts | 109° |
| 2026-05-04 05:15 | 41.62039 | 102.90919 | 38760 ft | 516 kts | 109° |
| 2026-05-04 05:16 | 41.59513 | 102.99901 | 38761 ft | 516 kts | 109° |
| 2026-05-04 05:16 | 41.56998 | 103.08827 | 38759 ft | 516 kts | 109° |
| 2026-05-04 05:17 | 41.54452 | 103.17805 | 38763 ft | 516 kts | 109° |
| 2026-05-04 05:17 | 41.51905 | 103.26755 | 38759 ft | 515 kts | 109° |
| 2026-05-04 05:18 | 41.49369 | 103.35644 | 38757 ft | 515 kts | 109° |
| 2026-05-04 05:18 | 41.46807 | 103.44592 | 38755 ft | 515 kts | 109° |
| 2026-05-04 05:19 | 41.44241 | 103.53525 | 38763 ft | 515 kts | 109° |
| 2026-05-04 05:19 | 41.41686 | 103.62387 | 38760 ft | 515 kts | 109° |
| 2026-05-04 05:20 | 41.39106 | 103.71310 | 38757 ft | 515 kts | 109° |
| 2026-05-04 05:20 | 41.36516 | 103.80232 | 38757 ft | 515 kts | 109° |
| 2026-05-04 05:21 | 41.33937 | 103.89084 | 38760 ft | 515 kts | 110° |
| 2026-05-04 05:21 | 41.31336 | 103.97984 | 38760 ft | 515 kts | 110° |
| 2026-05-04 05:22 | 41.28752 | 104.06796 | 38760 ft | 514 kts | 110° |
| 2026-05-04 05:22 | 41.26144 | 104.15661 | 38760 ft | 514 kts | 110° |
| 2026-05-04 05:23 | 41.23528 | 104.24517 | 38766 ft | 514 kts | 110° |
| 2026-05-04 05:23 | 41.20904 | 104.33376 | 38765 ft | 514 kts | 110° |
| 2026-05-04 05:24 | 41.18289 | 104.42172 | 38768 ft | 514 kts | 110° |
| 2026-05-04 05:24 | 41.15653 | 104.51009 | 38774 ft | 514 kts | 110° |
| 2026-05-04 05:25 | 41.13011 | 104.59838 | 38774 ft | 514 kts | 110° |
| 2026-05-04 05:25 | 41.10378 | 104.68605 | 38779 ft | 514 kts | 110° |
| 2026-05-04 05:26 | 41.07622 | 104.77354 | 38776 ft | 515 kts | 112° |
| 2026-05-04 05:26 | 41.04651 | 104.85999 | 38783 ft | 515 kts | 113° |
| 2026-05-04 05:28 | 40.92863 | 105.20461 | 38790 ft | 514 kts | 113° |
| 2026-05-04 05:29 | 40.89907 | 105.29099 | 38805 ft | 514 kts | 113° |
| 2026-05-04 05:29 | 40.86944 | 105.37725 | 38795 ft | 514 kts | 113° |
| 2026-05-04 05:31 | 40.75072 | 105.72025 | 38814 ft | 514 kts | 113° |
| 2026-05-04 05:32 | 40.72079 | 105.80607 | 38815 ft | 514 kts | 113° |
| 2026-05-04 05:33 | 40.67578 | 105.93465 | 38826 ft | 514 kts | 113° |
| 2026-05-04 05:33 | 40.64573 | 106.02019 | 38829 ft | 514 kts | 113° |
| 2026-05-04 05:34 | 40.61576 | 106.10523 | 38823 ft | 515 kts | 113° |
| 2026-05-04 05:34 | 40.58551 | 106.19080 | 38823 ft | 515 kts | 114° |
| 2026-05-04 05:35 | 40.55525 | 106.27617 | 38821 ft | 515 kts | 114° |
| 2026-05-04 05:35 | 40.52505 | 106.36112 | 38826 ft | 515 kts | 114° |
| 2026-05-04 05:36 | 40.49464 | 106.44637 | 38813 ft | 515 kts | 114° |
| 2026-05-04 05:36 | 40.46416 | 106.53159 | 38805 ft | 515 kts | 114° |
| 2026-05-04 05:37 | 40.43380 | 106.61619 | 38800 ft | 515 kts | 114° |
| 2026-05-04 05:37 | 40.40311 | 106.70147 | 38811 ft | 515 kts | 114° |
| 2026-05-04 05:38 | 40.35719 | 106.82864 | 38804 ft | 515 kts | 114° |
| 2026-05-04 05:38 | 40.32826 | 106.91455 | 38805 ft | 513 kts | 106° |
| 2026-05-04 05:39 | 40.31923 | 107.05114 | 38817 ft | 503 kts | 80° |
| 2026-05-04 05:40 | 40.33547 | 107.18702 | 38799 ft | 503 kts | 77° |
| 2026-05-04 05:40 | 40.34727 | 107.27754 | 38799 ft | 503 kts | 77° |
| 2026-05-04 05:41 | 40.35857 | 107.36766 | 38797 ft | 503 kts | 78° |
| 2026-05-04 05:41 | 40.36966 | 107.45849 | 38796 ft | 504 kts | 78° |
| 2026-05-04 05:42 | 40.38062 | 107.54928 | 38796 ft | 504 kts | 78° |
| 2026-05-04 05:42 | 40.39152 | 107.64019 | 38799 ft | 504 kts | 78° |
| 2026-05-04 05:43 | 40.40235 | 107.73101 | 38799 ft | 504 kts | 78° |
| 2026-05-04 05:45 | 40.44497 | 108.09463 | 38802 ft | 504 kts | 78° |
| 2026-05-04 05:47 | 40.48629 | 108.45845 | 38803 ft | 505 kts | 78° |
| 2026-05-04 05:47 | 40.49651 | 108.54995 | 38798 ft | 505 kts | 78° |
| 2026-05-04 05:48 | 40.50657 | 108.64075 | 38793 ft | 505 kts | 78° |
| 2026-05-04 05:48 | 40.51663 | 108.73224 | 38801 ft | 505 kts | 78° |
| 2026-05-04 05:49 | 40.52660 | 108.82361 | 38805 ft | 505 kts | 79° |
| 2026-05-04 05:49 | 40.53645 | 108.91451 | 38802 ft | 505 kts | 79° |
| 2026-05-04 05:51 | 40.57541 | 109.28112 | 38816 ft | 506 kts | 79° |
| 2026-05-04 05:52 | 40.58499 | 109.37303 | 38815 ft | 506 kts | 79° |
| 2026-05-04 05:52 | 40.59443 | 109.46431 | 38821 ft | 506 kts | 79° |
| 2026-05-04 05:54 | 40.63015 | 109.81650 | 38846 ft | 506 kts | 79° |
| 2026-05-04 05:55 | 40.63924 | 109.90798 | 38838 ft | 506 kts | 79° |
| 2026-05-04 05:55 | 40.64600 | 110.00057 | 38854 ft | 509 kts | 86° |
| 2026-05-04 05:56 | 40.64659 | 110.09335 | 38856 ft | 509 kts | 87° |
| 2026-05-04 05:56 | 40.64604 | 110.18687 | 38862 ft | 509 kts | 88° |
| 2026-05-04 05:57 | 40.64531 | 110.27971 | 38870 ft | 509 kts | 88° |
| 2026-05-04 05:57 | 40.64460 | 110.37316 | 38871 ft | 509 kts | 88° |
| 2026-05-04 05:58 | 40.64390 | 110.46661 | 38880 ft | 509 kts | 88° |
| 2026-05-04 05:58 | 40.64320 | 110.55952 | 38883 ft | 510 kts | 88° |
| 2026-05-04 05:59 | 40.64234 | 110.65309 | 38892 ft | 510 kts | 88° |
| 2026-05-04 05:59 | 40.64141 | 110.74675 | 38889 ft | 511 kts | 88° |
| 2026-05-04 06:00 | 40.64043 | 110.83975 | 38899 ft | 510 kts | 88° |
| 2026-05-04 06:00 | 40.63937 | 110.93349 | 38891 ft | 511 kts | 88° |
| 2026-05-04 06:01 | 40.63824 | 111.02661 | 38887 ft | 511 kts | 88° |
| 2026-05-04 06:03 | 40.63296 | 111.40089 | 38897 ft | 511 kts | 88° |
| 2026-05-04 06:05 | 40.62556 | 111.82214 | 38918 ft | 512 kts | 88° |
| 2026-05-04 06:06 | 40.62373 | 111.91533 | 38913 ft | 512 kts | 88° |
| 2026-05-04 06:06 | 40.62201 | 112.00937 | 38923 ft | 513 kts | 88° |
| 2026-05-04 06:07 | 40.61989 | 112.10340 | 38920 ft | 513 kts | 89° |
| 2026-05-04 06:07 | 40.61772 | 112.19666 | 38923 ft | 513 kts | 89° |
| 2026-05-04 06:08 | 40.61552 | 112.29057 | 38931 ft | 513 kts | 89° |
| 2026-05-04 06:08 | 40.61326 | 112.38443 | 38923 ft | 513 kts | 89° |
| 2026-05-04 06:09 | 40.61096 | 112.47770 | 38923 ft | 513 kts | 89° |
| 2026-05-04 06:11 | 40.58755 | 112.85317 | 38881 ft | 515 kts | 93° |
| 2026-05-04 06:13 | 40.56211 | 113.22832 | 38860 ft | 515 kts | 92° |
| 2026-05-04 06:14 | 40.53908 | 113.55607 | 38854 ft | 516 kts | 92° |
| 2026-05-04 06:15 | 40.53234 | 113.64947 | 38855 ft | 516 kts | 92° |
| 2026-05-04 06:15 | 40.52548 | 113.74353 | 38851 ft | 515 kts | 92° |
| 2026-05-04 06:16 | 40.51856 | 113.83741 | 38853 ft | 515 kts | 92° |
| 2026-05-04 06:16 | 40.51161 | 113.93073 | 38848 ft | 516 kts | 92° |
| 2026-05-04 06:17 | 40.50471 | 114.02471 | 39080 ft | 516 kts | 91° |
| 2026-05-04 06:17 | 40.50235 | 114.07178 | 39240 ft | 515 kts | 89° |
| 2026-05-04 06:17 | 40.50057 | 114.11889 | 39375 ft | 515 kts | 89° |
| 2026-05-04 06:18 | 40.49898 | 114.16530 | 39498 ft | 515 kts | 89° |
| 2026-05-04 06:18 | 40.49731 | 114.21256 | 39619 ft | 516 kts | 89° |
| 2026-05-04 06:18 | 40.49552 | 114.25970 | 39757 ft | 516 kts | 90° |
| 2026-05-04 06:20 | 40.48085 | 114.58956 | 40574 ft | 518 kts | 90° |
| 2026-05-04 06:20 | 40.47864 | 114.63691 | 40698 ft | 518 kts | 90° |
| 2026-05-04 06:21 | 40.46966 | 114.82567 | 40859 ft | 519 kts | 90° |
| 2026-05-04 06:22 | 40.46502 | 114.92045 | 40859 ft | 519 kts | 91° |
| 2026-05-04 06:25 | 40.43012 | 115.58287 | 40871 ft | 521 kts | 92° |
| 2026-05-04 06:26 | 40.42234 | 115.67759 | 40881 ft | 521 kts | 94° |
| 2026-05-04 06:26 | 40.41416 | 115.77174 | 40879 ft | 521 kts | 94° |
| 2026-05-04 06:27 | 40.39440 | 116.00791 | 40892 ft | 521 kts | 93° |
| 2026-05-04 06:28 | 40.38645 | 116.10254 | 40885 ft | 520 kts | 94° |
| 2026-05-04 06:28 | 40.37849 | 116.19633 | 40894 ft | 520 kts | 94° |
| 2026-05-04 06:29 | 40.37041 | 116.29064 | 40891 ft | 519 kts | 94° |
| 2026-05-04 06:29 | 40.36227 | 116.38469 | 40898 ft | 519 kts | 94° |
| 2026-05-04 06:30 | 40.35409 | 116.47831 | 40898 ft | 519 kts | 94° |
| 2026-05-04 06:30 | 40.34577 | 116.57250 | 40905 ft | 519 kts | 94° |
| 2026-05-04 06:31 | 40.32807 | 116.66460 | 40904 ft | 523 kts | 112° |
| 2026-05-04 06:31 | 40.31132 | 116.70617 | 40901 ft | 524 kts | 123° |
| 2026-05-04 06:31 | 40.28891 | 116.74374 | 40907 ft | 524 kts | 134° |
| 2026-05-04 06:32 | 40.26157 | 116.77545 | 40904 ft | 523 kts | 146° |
| 2026-05-04 06:33 | 40.02123 | 116.81319 | 40903 ft | 513 kts | 178° |
| 2026-05-04 06:34 | 39.95008 | 116.82366 | 40903 ft | 515 kts | 175° |
| 2026-05-04 06:34 | 39.87902 | 116.83778 | 40903 ft | 516 kts | 174° |
| 2026-05-04 06:36 | 39.59618 | 116.89651 | 40918 ft | 514 kts | 174° |
| 2026-05-04 06:37 | 39.52536 | 116.91112 | 40916 ft | 514 kts | 174° |
| 2026-05-04 06:37 | 39.45505 | 116.92558 | 40917 ft | 514 kts | 174° |
| 2026-05-04 06:38 | 39.38416 | 116.94013 | 40919 ft | 514 kts | 174° |
| 2026-05-04 06:40 | 39.14603 | 117.03072 | 40931 ft | 526 kts | 140° |
| 2026-05-04 06:40 | 39.12067 | 117.06471 | 40918 ft | 527 kts | 128° |
| 2026-05-04 06:40 | 39.10075 | 117.10368 | 40932 ft | 528 kts | 117° |
| 2026-05-04 06:40 | 39.08648 | 117.14715 | 40938 ft | 527 kts | 105° |
| 2026-05-04 06:41 | 39.07717 | 117.23990 | 40960 ft | 521 kts | 84° |
| 2026-05-04 06:41 | 39.08046 | 117.33315 | 40942 ft | 524 kts | 92° |
| 2026-05-04 06:42 | 39.07809 | 117.42641 | 40931 ft | 523 kts | 88° |
| 2026-05-04 06:44 | 39.07391 | 117.78553 | 40949 ft | 524 kts | 89° |
| 2026-05-04 06:44 | 39.07240 | 117.89468 | 40950 ft | 524 kts | 89° |
| 2026-05-04 06:45 | 39.07126 | 117.97337 | 40954 ft | 524 kts | 89° |
| 2026-05-04 06:45 | 39.06478 | 118.06636 | 40963 ft | 526 kts | 98° |
| 2026-05-04 06:46 | 39.05115 | 118.15908 | 40957 ft | 526 kts | 100° |
| 2026-05-04 06:46 | 39.03629 | 118.25141 | 40958 ft | 526 kts | 101° |
| 2026-05-04 06:48 | 38.97687 | 118.61896 | 40968 ft | 526 kts | 101° |
| 2026-05-04 06:50 | 38.91639 | 118.98672 | 40972 ft | 526 kts | 101° |
| 2026-05-04 06:51 | 38.90107 | 119.07895 | 40975 ft | 527 kts | 101° |
| 2026-05-04 06:51 | 38.88574 | 119.17043 | 40980 ft | 527 kts | 101° |
| 2026-05-04 06:52 | 38.87017 | 119.26269 | 40980 ft | 527 kts | 101° |
| 2026-05-04 06:52 | 38.85457 | 119.35481 | 40982 ft | 528 kts | 102° |
| 2026-05-04 06:53 | 38.83888 | 119.44700 | 40983 ft | 529 kts | 102° |
| 2026-05-04 06:53 | 38.82322 | 119.53863 | 40984 ft | 529 kts | 102° |
| 2026-05-04 06:54 | 38.80738 | 119.63082 | 40984 ft | 529 kts | 102° |
| 2026-05-04 06:54 | 38.79143 | 119.72318 | 40986 ft | 529 kts | 102° |
| 2026-05-04 06:55 | 38.77554 | 119.81475 | 40987 ft | 529 kts | 102° |
| 2026-05-04 06:55 | 38.75987 | 119.90714 | 40986 ft | 530 kts | 101° |
| 2026-05-04 06:57 | 38.63513 | 120.22643 | 41005 ft | 512 kts | 162° |
| 2026-05-04 06:58 | 38.56976 | 120.26244 | 41003 ft | 520 kts | 149° |
| 2026-05-04 06:58 | 38.54187 | 120.29214 | 41007 ft | 525 kts | 134° |
| 2026-05-04 06:58 | 38.52036 | 120.32997 | 41007 ft | 528 kts | 118° |
| 2026-05-04 06:59 | 38.50691 | 120.37297 | 41006 ft | 528 kts | 103° |
| 2026-05-04 06:59 | 38.50207 | 120.41931 | 41006 ft | 527 kts | 88° |
| 2026-05-04 06:59 | 38.50633 | 120.46550 | 41007 ft | 523 kts | 72° |
| 2026-05-04 06:59 | 38.51936 | 120.50856 | 41008 ft | 517 kts | 57° |
| 2026-05-04 07:01 | 38.64040 | 120.77587 | 41002 ft | 527 kts | 93° |
| 2026-05-04 07:01 | 38.63483 | 120.82229 | 41002 ft | 529 kts | 105° |
| 2026-05-04 07:02 | 38.62254 | 120.86651 | 41004 ft | 529 kts | 116° |
| 2026-05-04 07:02 | 38.60440 | 120.90670 | 41006 ft | 527 kts | 127° |
| 2026-05-04 07:02 | 38.58078 | 120.94236 | 41009 ft | 524 kts | 138° |
| 2026-05-04 07:02 | 38.55287 | 120.97231 | 41006 ft | 521 kts | 146° |
| 2026-05-04 07:03 | 38.50129 | 121.03817 | 41006 ft | 528 kts | 128° |
| 2026-05-04 07:03 | 38.48209 | 121.07750 | 41009 ft | 530 kts | 117° |
| 2026-05-04 07:03 | 38.46859 | 121.12124 | 41005 ft | 530 kts | 105° |
| 2026-05-04 07:04 | 38.45120 | 121.21297 | 41003 ft | 532 kts | 101° |
| 2026-05-04 07:04 | 38.43691 | 121.30557 | 40997 ft | 533 kts | 101° |
| 2026-05-04 07:05 | 38.42262 | 121.39854 | 41000 ft | 534 kts | 101° |
| 2026-05-04 07:05 | 38.40779 | 121.49142 | 41008 ft | 534 kts | 101° |
| 2026-05-04 07:06 | 38.38469 | 121.63001 | 41006 ft | 535 kts | 102° |
| 2026-05-04 07:07 | 38.36900 | 121.72298 | 40999 ft | 536 kts | 102° |
| 2026-05-04 07:09 | 38.30594 | 122.09416 | 41015 ft | 538 kts | 102° |
| 2026-05-04 07:09 | 38.28989 | 122.18752 | 41022 ft | 539 kts | 103° |
| 2026-05-04 07:10 | 38.27393 | 122.28077 | 41017 ft | 539 kts | 102° |
| 2026-05-04 07:12 | 38.13593 | 122.60241 | 41031 ft | 529 kts | 139° |
| 2026-05-04 07:12 | 38.08361 | 122.66835 | 41029 ft | 530 kts | 139° |
| 2026-05-04 07:13 | 38.03200 | 122.73458 | 41025 ft | 530 kts | 138° |
| 2026-05-04 07:13 | 37.98037 | 122.80162 | 41027 ft | 530 kts | 138° |
| 2026-05-04 07:14 | 37.85123 | 122.96873 | 41023 ft | 531 kts | 139° |
| 2026-05-04 07:15 | 37.79946 | 123.03536 | 41040 ft | 531 kts | 139° |
| 2026-05-04 07:15 | 37.74796 | 123.10150 | 41037 ft | 531 kts | 139° |
| 2026-05-04 07:16 | 37.69597 | 123.16813 | 41036 ft | 531 kts | 139° |
| 2026-05-04 07:16 | 37.64407 | 123.23454 | 41043 ft | 531 kts | 139° |
| 2026-05-04 07:17 | 37.59241 | 123.30047 | 41047 ft | 531 kts | 139° |
| 2026-05-04 07:17 | 37.54400 | 123.37151 | 41045 ft | 535 kts | 131° |
| 2026-05-04 07:18 | 37.49918 | 123.44575 | 41045 ft | 536 kts | 130° |
| 2026-05-04 07:18 | 37.45451 | 123.52108 | 41051 ft | 536 kts | 130° |
| 2026-05-04 07:19 | 37.40985 | 123.59613 | 41048 ft | 536 kts | 130° |
| 2026-05-04 07:19 | 37.36491 | 123.67124 | 41052 ft | 536 kts | 131° |
| 2026-05-04 07:20 | 37.32022 | 123.74562 | 41056 ft | 536 kts | 131° |
| 2026-05-04 07:20 | 37.27514 | 123.82047 | 41055 ft | 536 kts | 131° |
| 2026-05-04 07:22 | 37.20755 | 124.13174 | 41053 ft | 551 kts | 89° |
| 2026-05-04 07:22 | 37.20842 | 124.17979 | 41054 ft | 551 kts | 88° |
| 2026-05-04 07:23 | 37.20986 | 124.27595 | 41056 ft | 552 kts | 89° |
| 2026-05-04 07:23 | 37.21049 | 124.37240 | 41057 ft | 553 kts | 90° |
| 2026-05-04 07:24 | 37.21068 | 124.46885 | 41049 ft | 552 kts | 90° |
| 2026-05-04 07:24 | 37.21072 | 124.56485 | 41053 ft | 553 kts | 90° |
| 2026-05-04 07:26 | 37.21031 | 124.95108 | 41047 ft | 555 kts | 90° |
| 2026-05-04 07:27 | 37.21001 | 125.04816 | 41042 ft | 555 kts | 90° |
| 2026-05-04 07:27 | 37.20964 | 125.14447 | 41054 ft | 555 kts | 90° |
| 2026-05-04 07:28 | 37.20919 | 125.24161 | 41039 ft | 555 kts | 90° |
| 2026-05-04 07:28 | 37.20866 | 125.33866 | 41044 ft | 557 kts | 91° |
| 2026-05-04 07:29 | 37.20805 | 125.43556 | 41044 ft | 557 kts | 91° |
| 2026-05-04 07:29 | 37.20736 | 125.53291 | 41034 ft | 558 kts | 91° |
| 2026-05-04 07:30 | 37.20659 | 125.63042 | 41034 ft | 558 kts | 91° |
| 2026-05-04 07:30 | 37.20574 | 125.72782 | 41038 ft | 558 kts | 91° |
| 2026-05-04 07:31 | 37.20487 | 125.82530 | 41040 ft | 559 kts | 90° |
| 2026-05-04 07:33 | 37.20944 | 126.21571 | 41040 ft | 560 kts | 90° |
| 2026-05-04 07:33 | 37.21023 | 126.31286 | 41032 ft | 561 kts | 90° |
| 2026-05-04 07:34 | 37.21094 | 126.41091 | 41028 ft | 561 kts | 90° |
| 2026-05-04 07:34 | 37.21162 | 126.50889 | 41008 ft | 561 kts | 90° |
| 2026-05-04 07:35 | 37.21218 | 126.60706 | 41014 ft | 563 kts | 90° |
| 2026-05-04 07:35 | 37.21255 | 126.68884 | 41031 ft | 563 kts | 90° |
| 2026-05-04 07:36 | 37.21300 | 126.80300 | 41006 ft | 563 kts | 90° |
| 2026-05-04 07:38 | 37.28962 | 127.10198 | 40984 ft | 549 kts | 44° |
| 2026-05-04 07:38 | 37.31494 | 127.13794 | 40989 ft | 548 kts | 43° |
| 2026-05-04 07:38 | 37.36599 | 127.20857 | 40992 ft | 548 kts | 43° |
| 2026-05-04 07:39 | 37.41715 | 127.27991 | 40995 ft | 549 kts | 43° |
| 2026-05-04 07:39 | 37.46636 | 127.35308 | 40978 ft | 554 kts | 51° |
| 2026-05-04 07:40 | 37.48616 | 127.39556 | 40976 ft | 559 kts | 62° |
| 2026-05-04 07:40 | 37.49963 | 127.44094 | 40971 ft | 562 kts | 74° |
| 2026-05-04 07:40 | 37.50626 | 127.48959 | 40967 ft | 563 kts | 86° |
| 2026-05-04 07:40 | 37.50522 | 127.53877 | 40959 ft | 561 kts | 99° |
| 2026-05-04 07:41 | 37.48694 | 127.63396 | 40948 ft | 559 kts | 110° |
| 2026-05-04 07:41 | 37.46198 | 127.72686 | 40931 ft | 559 kts | 113° |
| 2026-05-04 07:42 | 37.43653 | 127.81947 | 40934 ft | 560 kts | 112° |
| 2026-05-04 07:42 | 37.41193 | 127.91193 | 40934 ft | 561 kts | 112° |
| 2026-05-04 07:43 | 37.38744 | 128.00531 | 40926 ft | 561 kts | 112° |
| 2026-05-04 07:43 | 37.36307 | 128.09862 | 40934 ft | 562 kts | 112° |
| 2026-05-04 07:44 | 37.33850 | 128.19211 | 40935 ft | 562 kts | 112° |
| 2026-05-04 07:44 | 37.31397 | 128.28484 | 40937 ft | 563 kts | 112° |
| 2026-05-04 07:45 | 37.28912 | 128.37829 | 40927 ft | 563 kts | 112° |
| 2026-05-04 07:45 | 37.26426 | 128.47173 | 40930 ft | 563 kts | 112° |
| 2026-05-04 07:46 | 37.23938 | 128.56497 | 40933 ft | 563 kts | 112° |
| 2026-05-04 07:46 | 37.21456 | 128.65760 | 40927 ft | 563 kts | 112° |
| 2026-05-04 07:47 | 37.18944 | 128.75111 | 40932 ft | 564 kts | 113° |
| 2026-05-04 07:49 | 37.08819 | 129.12389 | 40922 ft | 565 kts | 113° |
| 2026-05-04 07:49 | 37.06280 | 129.21658 | 40943 ft | 567 kts | 114° |
| 2026-05-04 07:50 | 37.03712 | 129.30979 | 40947 ft | 566 kts | 114° |
| 2026-05-04 07:50 | 37.01134 | 129.40318 | 40959 ft | 567 kts | 114° |
| 2026-05-04 07:51 | 36.98559 | 129.49636 | 40965 ft | 567 kts | 114° |
| 2026-05-04 07:51 | 36.95985 | 129.58910 | 40951 ft | 566 kts | 114° |
| 2026-05-04 07:52 | 36.93386 | 129.68236 | 40972 ft | 567 kts | 114° |
| 2026-05-04 07:52 | 36.90779 | 129.77553 | 40976 ft | 567 kts | 114° |
| 2026-05-04 07:54 | 36.80320 | 130.14619 | 40977 ft | 567 kts | 115° |
| 2026-05-04 07:55 | 36.77674 | 130.23913 | 40982 ft | 567 kts | 115° |
| 2026-05-04 07:55 | 36.75040 | 130.33140 | 40981 ft | 567 kts | 115° |
| 2026-05-04 07:56 | 36.72379 | 130.42423 | 40983 ft | 568 kts | 115° |
| 2026-05-04 07:56 | 36.69714 | 130.51693 | 40977 ft | 567 kts | 115° |
| 2026-05-04 07:57 | 36.67063 | 130.60886 | 40982 ft | 567 kts | 115° |
| 2026-05-04 07:57 | 36.64382 | 130.70145 | 40987 ft | 567 kts | 115° |
| 2026-05-04 07:58 | 36.61714 | 130.79330 | 40985 ft | 567 kts | 115° |
| 2026-05-04 07:58 | 36.59024 | 130.88564 | 40985 ft | 567 kts | 116° |
| 2026-05-04 07:59 | 36.56328 | 130.97783 | 40988 ft | 567 kts | 116° |
| 2026-05-04 07:59 | 36.53619 | 131.07016 | 40987 ft | 567 kts | 116° |
| 2026-05-04 08:00 | 36.50923 | 131.16181 | 40974 ft | 568 kts | 116° |
| 2026-05-04 08:02 | 36.39987 | 131.53030 | 40991 ft | 569 kts | 117° |
| 2026-05-04 08:02 | 36.37226 | 131.62254 | 40988 ft | 569 kts | 117° |
| 2026-05-04 08:03 | 36.34479 | 131.71407 | 40991 ft | 569 kts | 117° |
| 2026-05-04 08:03 | 36.31704 | 131.80620 | 40975 ft | 568 kts | 117° |
| 2026-05-04 08:04 | 36.28942 | 131.89765 | 40991 ft | 568 kts | 118° |
| 2026-05-04 08:04 | 36.26157 | 131.98948 | 40964 ft | 567 kts | 117° |
| 2026-05-04 08:05 | 36.23370 | 132.08113 | 40990 ft | 567 kts | 118° |
| 2026-05-04 08:05 | 36.20598 | 132.17199 | 40990 ft | 567 kts | 118° |
| 2026-05-04 08:06 | 36.17799 | 132.26345 | 40992 ft | 567 kts | 118° |
| 2026-05-04 08:06 | 36.14992 | 132.35488 | 40993 ft | 567 kts | 118° |
| 2026-05-04 08:08 | 36.03739 | 132.71855 | 40991 ft | 567 kts | 119° |
| 2026-05-04 08:11 | 35.90945 | 133.12644 | 40991 ft | 565 kts | 120° |
| 2026-05-04 08:11 | 35.86649 | 133.26215 | 40983 ft | 565 kts | 120° |
| 2026-05-04 08:12 | 35.83777 | 133.35251 | 40988 ft | 564 kts | 121° |
| 2026-05-04 08:12 | 35.80922 | 133.44205 | 40967 ft | 564 kts | 121° |
| 2026-05-04 08:13 | 35.78042 | 133.53216 | 40988 ft | 564 kts | 121° |
| 2026-05-04 08:13 | 35.75151 | 133.62228 | 40988 ft | 564 kts | 121° |
| 2026-05-04 08:14 | 35.72277 | 133.71165 | 40987 ft | 564 kts | 121° |
| 2026-05-04 08:16 | 35.60675 | 134.06957 | 40965 ft | 563 kts | 122° |
| 2026-05-04 08:16 | 35.57755 | 134.15899 | 40963 ft | 563 kts | 122° |
| 2026-05-04 08:17 | 35.54833 | 134.24822 | 40935 ft | 562 kts | 122° |
| 2026-05-04 08:17 | 35.51915 | 134.33694 | 40966 ft | 563 kts | 122° |
| 2026-05-04 08:19 | 35.40148 | 134.69237 | 40937 ft | 562 kts | 123° |
| 2026-05-04 08:20 | 35.37185 | 134.78119 | 40941 ft | 564 kts | 122° |
| 2026-05-04 08:20 | 35.34232 | 134.86962 | 40942 ft | 563 kts | 123° |
| 2026-05-04 08:21 | 35.31261 | 134.95843 | 40936 ft | 563 kts | 123° |
| 2026-05-04 08:21 | 35.28267 | 135.04735 | 40902 ft | 564 kts | 123° |
| 2026-05-04 08:22 | 35.25268 | 135.13609 | 40932 ft | 565 kts | 123° |
| 2026-05-04 08:24 | 35.13240 | 135.49020 | 40909 ft | 563 kts | 123° |
| 2026-05-04 08:24 | 35.10236 | 135.57806 | 40902 ft | 563 kts | 123° |
| 2026-05-04 08:25 | 35.07217 | 135.66611 | 40904 ft | 561 kts | 123° |
| 2026-05-04 08:25 | 35.04698 | 135.73926 | 40861 ft | 559 kts | 123° |
| 2026-05-04 08:27 | 34.96994 | 136.11544 | 40865 ft | 577 kts | 109° |
| 2026-05-04 08:28 | 34.95441 | 136.21139 | 40866 ft | 576 kts | 110° |
| 2026-05-04 08:28 | 34.93865 | 136.30716 | 40831 ft | 575 kts | 110° |
| 2026-05-04 08:29 | 34.92289 | 136.40217 | 40842 ft | 575 kts | 110° |
| 2026-05-04 08:31 | 34.85874 | 136.78460 | 40849 ft | 576 kts | 110° |
| 2026-05-04 08:33 | 34.80554 | 137.16899 | 40827 ft | 578 kts | 105° |
| 2026-05-04 08:35 | 34.76256 | 137.55438 | 40804 ft | 574 kts | 106° |
| 2026-05-04 08:35 | 34.75140 | 137.65059 | 40796 ft | 573 kts | 106° |
| 2026-05-04 08:37 | 34.71858 | 137.98757 | 40711 ft | 572 kts | 104° |
| 2026-05-04 08:38 | 34.71474 | 138.08483 | 40703 ft | 577 kts | 96° |
| 2026-05-04 08:38 | 34.71464 | 138.18191 | 40695 ft | 577 kts | 96° |
| 2026-05-04 08:40 | 34.71581 | 138.56976 | 40718 ft | 570 kts | 96° |
| 2026-05-04 08:41 | 34.71578 | 138.66627 | 40698 ft | 570 kts | 96° |
| 2026-05-04 08:41 | 34.71571 | 138.76205 | 40226 ft | 564 kts | 96° |
| 2026-05-04 08:41 | 34.71563 | 138.80990 | 39389 ft | 569 kts | 96° |
| 2026-05-04 08:42 | 34.71553 | 138.85823 | 38504 ft | 575 kts | 96° |
| 2026-05-04 08:42 | 34.71534 | 138.90710 | 37503 ft | 579 kts | 96° |
| 2026-05-04 08:42 | 34.71516 | 138.95546 | 36723 ft | 579 kts | 97° |
| 2026-05-04 08:42 | 34.71494 | 139.00440 | 35931 ft | 579 kts | 97° |
| 2026-05-04 08:43 | 34.71466 | 139.05351 | 35132 ft | 580 kts | 97° |
| 2026-05-04 08:43 | 34.71437 | 139.10271 | 34338 ft | 582 kts | 97° |
| 2026-05-04 08:43 | 34.71408 | 139.15212 | 33410 ft | 585 kts | 97° |
| 2026-05-04 08:43 | 34.71376 | 139.20179 | 32486 ft | 587 kts | 97° |
| 2026-05-04 08:44 | 34.71344 | 139.25150 | 31593 ft | 589 kts | 97° |
| 2026-05-04 08:44 | 34.71310 | 139.30138 | 30773 ft | 589 kts | 97° |
| 2026-05-04 08:46 | 34.81003 | 139.61589 | 26433 ft | 572 kts | 58° |
| 2026-05-04 08:46 | 34.83060 | 139.65726 | 25817 ft | 568 kts | 59° |
| 2026-05-04 08:46 | 34.85062 | 139.69801 | 25226 ft | 565 kts | 59° |
| 2026-05-04 08:46 | 34.87067 | 139.73909 | 24608 ft | 561 kts | 59° |
| 2026-05-04 08:47 | 34.89054 | 139.77997 | 24027 ft | 558 kts | 59° |
| 2026-05-04 08:47 | 34.91031 | 139.82067 | 23424 ft | 556 kts | 59° |
| 2026-05-04 08:47 | 34.93264 | 139.85809 | 22723 ft | 550 kts | 44° |
| 2026-05-04 08:47 | 34.96132 | 139.88803 | 22116 ft | 534 kts | 27° |
| 2026-05-04 08:48 | 34.99387 | 139.90783 | 21545 ft | 510 kts | 10° |
| 2026-05-04 08:48 | 35.02749 | 139.91643 | 21076 ft | 479 kts | 352° |
| 2026-05-04 08:48 | 35.05942 | 139.91385 | 20664 ft | 440 kts | 334° |
| 2026-05-04 08:48 | 35.08636 | 139.90144 | 20283 ft | 398 kts | 315° |
| 2026-05-04 08:49 | 35.10642 | 139.88112 | 20050 ft | 360 kts | 296° |
| 2026-05-04 08:50 | 35.16944 | 139.72827 | 17189 ft | 373 kts | 317° |
| 2026-05-04 08:50 | 35.19389 | 139.71537 | 16995 ft | 391 kts | 329° |
| 2026-05-04 08:51 | 35.22149 | 139.70949 | 16120 ft | 421 kts | 347° |
| 2026-05-04 08:51 | 35.25145 | 139.71513 | 15540 ft | 447 kts | 10° |
| 2026-05-04 08:51 | 35.27891 | 139.73305 | 15390 ft | 450 kts | 32° |
| 2026-05-04 08:51 | 35.30210 | 139.75749 | 15078 ft | 431 kts | 39° |
| 2026-05-04 08:52 | 35.32368 | 139.78190 | 14567 ft | 415 kts | 38° |
| 2026-05-04 08:52 | 35.34459 | 139.80515 | 13968 ft | 407 kts | 38° |
| 2026-05-04 08:52 | 35.36553 | 139.82800 | 13313 ft | 400 kts | 37° |
| 2026-05-04 08:52 | 35.38623 | 139.85033 | 12688 ft | 389 kts | 37° |
| 2026-05-04 08:53 | 35.40606 | 139.87165 | 12382 ft | 369 kts | 37° |
| 2026-05-04 08:54 | 35.52655 | 140.00013 | 10505 ft | 313 kts | 35° |
| 2026-05-04 08:55 | 35.54294 | 140.01762 | 10290 ft | 310 kts | 35° |
| 2026-05-04 08:55 | 35.55916 | 140.03494 | 9946 ft | 307 kts | 35° |
| 2026-05-04 08:55 | 35.57521 | 140.05209 | 9647 ft | 304 kts | 35° |
| 2026-05-04 08:55 | 35.59104 | 140.06901 | 9365 ft | 299 kts | 35° |
| 2026-05-04 08:57 | 35.69946 | 140.13947 | 7627 ft | 239 kts | 332° |
| 2026-05-04 09:01 | 35.80087 | 139.98674 | 5823 ft | 178 kts | 244° |
| 2026-05-04 09:01 | 35.79299 | 139.97473 | 5758 ft | 183 kts | 232° |
| 2026-05-04 09:01 | 35.78332 | 139.96417 | 5502 ft | 190 kts | 223° |
| 2026-05-04 09:01 | 35.77240 | 139.95433 | 5115 ft | 196 kts | 221° |
| 2026-05-04 09:02 | 35.76133 | 139.94477 | 4834 ft | 195 kts | 220° |
| 2026-05-04 09:02 | 35.75019 | 139.93487 | 4363 ft | 205 kts | 222° |
| 2026-05-04 09:02 | 35.73834 | 139.92455 | 3933 ft | 210 kts | 220° |
| 2026-05-04 09:02 | 35.72639 | 139.91428 | 3627 ft | 208 kts | 221° |
| 2026-05-04 09:03 | 35.71473 | 139.90419 | 3380 ft | 202 kts | 221° |
| 2026-05-04 09:03 | 35.70340 | 139.89439 | 3154 ft | 196 kts | 220° |
| 2026-05-04 09:03 | 35.69231 | 139.88479 | 2913 ft | 193 kts | 220° |
| 2026-05-04 09:03 | 35.68143 | 139.87539 | 2665 ft | 189 kts | 220° |
| 2026-05-04 09:04 | 35.67098 | 139.86638 | 2411 ft | 178 kts | 221° |
| 2026-05-04 09:04 | 35.66116 | 139.85790 | 2182 ft | 167 kts | 221° |
| 2026-05-04 09:04 | 35.65201 | 139.84999 | 1968 ft | 155 kts | 220° |
| 2026-05-04 09:04 | 35.64348 | 139.84263 | 1770 ft | 144 kts | 220° |
| 2026-05-04 09:05 | 35.63559 | 139.83583 | 1594 ft | 134 kts | 221° |
| 2026-05-04 09:05 | 35.62816 | 139.82941 | 1421 ft | 126 kts | 221° |
| 2026-05-04 09:05 | 35.62107 | 139.82328 | 1263 ft | 123 kts | 221° |
| 2026-05-04 09:05 | 35.61410 | 139.81727 | 1095 ft | 122 kts | 221° |
| 2026-05-04 09:06 | 35.60713 | 139.81127 | 936 ft | 124 kts | 220° |
| 2026-05-04 09:07 | 35.56055 | 139.77114 | 31 ft | 91 kts | 215° |
| 2026-05-04 09:08 | 35.55644 | 139.76760 | 31 ft | 44 kts | 214° |
| 2026-05-04 09:08 | 35.55407 | 139.76636 | 31 ft | 35 kts | 192° |
| 2026-05-04 09:08 | 35.55276 | 139.76674 | 29 ft | 15 kts | 110° |
| 2026-05-04 09:08 | 35.55315 | 139.76750 | 29 ft | 0 kts | 38° |
| 2026-05-04 09:10 | 35.55351 | 139.76783 | 29 ft | 20 kts | 36° |
| 2026-05-04 09:10 | 35.55404 | 139.76924 | 29 ft | 20 kts | 121° |
| 2026-05-04 09:11 | 35.55288 | 139.77027 | 29 ft | 21 kts | 149° |
| 2026-05-04 09:11 | 35.55154 | 139.77124 | 29 ft | 23 kts | 149° |
| 2026-05-04 09:11 | 35.55009 | 139.77224 | 29 ft | 25 kts | 151° |
| 2026-05-04 09:11 | 35.54856 | 139.77333 | 29 ft | 26 kts | 150° |
| 2026-05-04 09:12 | 35.54717 | 139.77432 | 29 ft | 19 kts | 150° |
| 2026-05-04 09:12 | 35.54601 | 139.77515 | 29 ft | 21 kts | 150° |
| 2026-05-04 09:14 | 35.54373 | 139.77308 | 29 ft | 4 kts | 313° |
| 2026-05-04 09:14 | 35.54397 | 139.77286 | 29 ft | 2 kts | 338° |
| 2026-05-04 09:14 | 35.54402 | 139.77287 | 29 ft | 0 kts | 357° |
| 2026-05-04 09:14 | 35.54408 | 139.77294 | 29 ft | 0 kts | 40° |
| 2026-05-04 09:15 | 35.54432 | 139.77327 | 29 ft | 9 kts | 54° |
| 2026-05-04 09:15 | 35.54438 | 139.77339 | 29 ft | 0 kts | 57° |
| 2026-05-04 09:15 | 35.54443 | 139.77350 | 29 ft | 2 kts | 58° |
| 2026-05-04 09:15 | 35.54447 | 139.77356 | 29 ft | 0 kts | 58° |
| 2026-05-04 09:17 | 35.54448 | 139.77360 | 29 ft | 0 kts | 58° |